NOAA Web Site Link Tides and Currents Home Page Transparent placeholder image

PORTS® Data Listing: 8638610 Sewells Point, VA

CO-OPS RAW PORTS DATA

************************      PRELIMINARY DATA      ************************** 

     THIS RAW DATA HAS NOT BEEN SUBJECT TO THE NATIONAL OCEAN SERVICE'S        
     QUALITY CONTROL OR QUALITY ASSURANCE PROCEDURES AND DOES NOT MEET         
     THE CRITERIA AND STANDARDS OF OFFICIAL NATIONAL OCEAN SERVICE             
     DATA.  IT IS RELEASED FOR LIMITED PUBLIC USE AS PRELIMINARY DATA TO       
     BE USED ONLY WITH APPROPRIATE CAUTION.                                    

************************      PRELIMINARY DATA      ************************** 


       CD   -   Calendar date
       T    -   Time
       TZ   -   Timezone
       PW   -   Predicted water level (feet above MLLW)
       OW   -   Observed water level (feet above MLLW)
       WS   -   Wind speed (knots)
       WD   -   Wind direction (degrees true)
       WG   -   Wind gust (knots)
       AT   -   Air temperature (degrees farenheit)
       WT   -   Water temperature (degrees farenheit)
       AP   -   Air pressure (millibars)
       SA   -   Salinty (PSU - Practical Salinity Units)
       SG   -   Specific gravity
       RH   -   Relative humidity
       AG   -   Air gap (feet)
       VI   -   Visibility (nautical miles)

       ** NOTE **
       A variable that has its data fields filled with "9"s, indicates that
       data was not collected for that sample period.
       **********


STATION NAME: Sewells Point (8638610)
****************************************************************************************************
    CD       T    TZ    PW     OW    WS   WD   WG    AT    WT    AP    SA    SG     RH    AG   VI
****************************************************************************************************
2019/06/12 21:48 EDT    1.16   2.19 -999 -999 -999 -99.9  75.2 1015.1 18.3  1.012 -99.9 -99.99 -9.99
2019/06/12 21:54 EDT    1.09   2.11 -999 -999 -999 -99.9  75.2 1015.1 18.4  1.012 -99.9 -99.99 -9.99
2019/06/12 22:00 EDT    1.02   2.04 -999 -999 -999 -99.9  75.2 1015.1 18.3  1.012 -99.9 -99.99 -9.99
2019/06/12 22:06 EDT    0.96   1.98 -999 -999 -999 -99.9  75.2 1015.0 18.3  1.012 -99.9 -99.99 -9.99
2019/06/12 22:12 EDT    0.89   1.91 -999 -999 -999 -99.9  75.2 1015.0 18.2  1.012 -99.9 -99.99 -9.99
2019/06/12 22:18 EDT    0.83   1.83 -999 -999 -999 -99.9  75.2 1014.9 18.2  1.012 -99.9 -99.99 -9.99
2019/06/12 22:24 EDT    0.77   1.79 -999 -999 -999 -99.9  75.2 1014.9 18.2  1.012 -99.9 -99.99 -9.99
2019/06/12 22:30 EDT    0.70   1.73 -999 -999 -999 -99.9  75.2 1014.8 18.2  1.012 -99.9 -99.99 -9.99
2019/06/12 22:36 EDT    0.65   1.65 -999 -999 -999 -99.9  75.2 1014.6 18.2  1.012 -99.9 -99.99 -9.99
2019/06/12 22:42 EDT    0.59   1.58 -999 -999 -999 -99.9  75.2 1014.5 18.2  1.012 -99.9 -99.99 -9.99
2019/06/12 22:48 EDT    0.53   1.55 -999 -999 -999 -99.9  75.2 1014.3 18.2  1.012 -99.9 -99.99 -9.99
2019/06/12 22:54 EDT    0.48   1.49 -999 -999 -999 -99.9  75.2 1014.1 18.2  1.012 -99.9 -99.99 -9.99
2019/06/12 23:00 EDT    0.43   1.45 -999 -999 -999 -99.9  75.2 1014.0 18.2  1.012 -99.9 -99.99 -9.99
2019/06/12 23:06 EDT    0.39   1.37 -999 -999 -999 -99.9  75.2 1014.0 18.2  1.012 -99.9 -99.99 -9.99
2019/06/12 23:12 EDT    0.34   1.37 -999 -999 -999 -99.9  75.2 1013.9 18.2  1.012 -99.9 -99.99 -9.99
2019/06/12 23:18 EDT    0.30   1.32 -999 -999 -999 -99.9  75.2 1013.8 18.1  1.012 -99.9 -99.99 -9.99
2019/06/12 23:24 EDT    0.26   1.30 -999 -999 -999 -99.9  75.2 1013.7 18.1  1.012 -99.9 -99.99 -9.99
2019/06/12 23:30 EDT    0.22   1.25 -999 -999 -999 -99.9  75.2 1013.5 18.1  1.012 -99.9 -99.99 -9.99
2019/06/12 23:36 EDT    0.19   1.22 -999 -999 -999 -99.9  75.2 1013.5 18.1  1.012 -99.9 -99.99 -9.99
2019/06/12 23:42 EDT    0.16   1.21 -999 -999 -999 -99.9  75.2 1013.3 18.0  1.012 -99.9 -99.99 -9.99
2019/06/12 23:48 EDT    0.13   1.17 -999 -999 -999 -99.9  75.2 1013.2 18.1  1.012 -99.9 -99.99 -9.99
2019/06/12 23:54 EDT    0.11   1.18 -999 -999 -999 -99.9  75.2 1013.2 18.2  1.012 -99.9 -99.99 -9.99
2019/06/13 00:00 EDT    0.09   1.17 -999 -999 -999 -99.9  75.2 1013.1 18.1  1.012 -99.9 -99.99 -9.99
2019/06/13 00:06 EDT    0.07   1.16 -999 -999 -999 -99.9  75.4 1012.9 18.1  1.012 -99.9 -99.99 -9.99
2019/06/13 00:12 EDT    0.06   1.17 -999 -999 -999 -99.9  75.4 1012.7 18.1  1.012 -99.9 -99.99 -9.99
2019/06/13 00:18 EDT    0.05   1.17 -999 -999 -999 -99.9  75.4 1012.5 18.1  1.012 -99.9 -99.99 -9.99
2019/06/13 00:24 EDT    0.04   1.18 -999 -999 -999 -99.9  75.4 1012.4 18.1  1.012 -99.9 -99.99 -9.99
2019/06/13 00:30 EDT    0.04   1.19 -999 -999 -999 -99.9  75.4 1012.3 18.0  1.012 -99.9 -99.99 -9.99
2019/06/13 00:36 EDT    0.04   1.20 -999 -999 -999 -99.9  75.4 1012.2 18.0  1.012 -99.9 -99.99 -9.99
2019/06/13 00:42 EDT    0.04   1.24 -999 -999 -999 -99.9  75.4 1012.0 18.1  1.012 -99.9 -99.99 -9.99
2019/06/13 00:48 EDT    0.05   1.21 -999 -999 -999 -99.9  75.4 1011.9 18.0  1.012 -99.9 -99.99 -9.99
2019/06/13 00:54 EDT    0.06   1.27 -999 -999 -999 -99.9  75.4 1011.7 18.0  1.012 -99.9 -99.99 -9.99
2019/06/13 01:00 EDT    0.08   1.29 -999 -999 -999 -99.9  75.4 1011.5 18.0  1.012 -99.9 -99.99 -9.99
2019/06/13 01:06 EDT    0.09   1.32 -999 -999 -999 -99.9  75.6 1011.4 18.0  1.012 -99.9 -99.99 -9.99
2019/06/13 01:12 EDT    0.11   1.34 -999 -999 -999 -99.9  75.4 1011.3 18.0  1.012 -99.9 -99.99 -9.99
2019/06/13 01:18 EDT    0.14   1.32 -999 -999 -999 -99.9  75.4 1011.1 18.0  1.012 -99.9 -99.99 -9.99
2019/06/13 01:24 EDT    0.16   1.40 -999 -999 -999 -99.9  75.4 1011.0 18.0  1.012 -99.9 -99.99 -9.99
2019/06/13 01:30 EDT    0.19   1.41 -999 -999 -999 -99.9  75.4 1010.9 18.0  1.012 -99.9 -99.99 -9.99
2019/06/13 01:36 EDT    0.23   1.44 -999 -999 -999 -99.9  75.4 1010.8 18.0  1.012 -99.9 -99.99 -9.99
2019/06/13 01:42 EDT    0.26   1.48 -999 -999 -999 -99.9  75.4 1010.7 18.0  1.012 -99.9 -99.99 -9.99
2019/06/13 01:48 EDT    0.30   1.49 -999 -999 -999 -99.9  75.4 1010.4 18.0  1.012 -99.9 -99.99 -9.99
2019/06/13 01:54 EDT    0.34   1.58 -999 -999 -999 -99.9  75.4 1010.3 17.9  1.012 -99.9 -99.99 -9.99
2019/06/13 02:00 EDT    0.38   1.57 -999 -999 -999 -99.9  75.4 1010.1 17.9  1.012 -99.9 -99.99 -9.99
2019/06/13 02:06 EDT    0.43   1.63 -999 -999 -999 -99.9  75.4 1009.9 17.9  1.012 -99.9 -99.99 -9.99
2019/06/13 02:12 EDT    0.47   1.65 -999 -999 -999 -99.9  75.4 1009.8 17.9  1.012 -99.9 -99.99 -9.99
2019/06/13 02:18 EDT    0.52   1.70 -999 -999 -999 -99.9  75.4 1009.6 17.9  1.012 -99.9 -99.99 -9.99
2019/06/13 02:24 EDT    0.58   1.76 -999 -999 -999 -99.9  75.6 1009.4 17.9  1.012 -99.9 -99.99 -9.99
2019/06/13 02:30 EDT    0.63   1.81 -999 -999 -999 -99.9  75.2 1009.3 17.2  1.011 -99.9 -99.99 -9.99
2019/06/13 02:36 EDT    0.68   1.86 -999 -999 -999 -99.9  75.2 1009.3 17.2  1.011 -99.9 -99.99 -9.99
2019/06/13 02:42 EDT    0.74   1.92 -999 -999 -999 -99.9  75.2 1009.2 17.2  1.011 -99.9 -99.99 -9.99
2019/06/13 02:48 EDT    0.80   1.95 -999 -999 -999 -99.9  75.2 1009.1 17.3  1.011 -99.9 -99.99 -9.99
2019/06/13 02:54 EDT    0.86   2.02 -999 -999 -999 -99.9  75.4 1008.9 17.3  1.011 -99.9 -99.99 -9.99
2019/06/13 03:00 EDT    0.92   2.05 -999 -999 -999 -99.9  75.4 1008.7 17.3  1.011 -99.9 -99.99 -9.99
2019/06/13 03:06 EDT    0.98   2.09 -999 -999 -999 -99.9  75.4 1008.7 17.4  1.011 -99.9 -99.99 -9.99
2019/06/13 03:12 EDT    1.04   2.18 -999 -999 -999 -99.9  75.4 1008.7 17.3  1.011 -99.9 -99.99 -9.99
2019/06/13 03:18 EDT    1.10   2.23 -999 -999 -999 -99.9  75.4 1008.5 17.3  1.011 -99.9 -99.99 -9.99
2019/06/13 03:24 EDT    1.16   2.28 -999 -999 -999 -99.9  75.2 1008.3 17.2  1.011 -99.9 -99.99 -9.99
2019/06/13 03:30 EDT    1.22   2.35 -999 -999 -999 -99.9  75.2 1008.3 17.2  1.011 -99.9 -99.99 -9.99
2019/06/13 03:36 EDT    1.28   2.41 -999 -999 -999 -99.9  75.2 1008.2 17.1  1.011 -99.9 -99.99 -9.99
2019/06/13 03:42 EDT    1.34   2.48 -999 -999 -999 -99.9  75.2 1007.9 17.1  1.011 -99.9 -99.99 -9.99
2019/06/13 03:48 EDT    1.40   2.52 -999 -999 -999 -99.9  75.2 1008.0 17.1  1.011 -99.9 -99.99 -9.99
2019/06/13 03:54 EDT    1.47   2.61 -999 -999 -999 -99.9  75.2 1007.9 17.2  1.011 -99.9 -99.99 -9.99
2019/06/13 04:00 EDT    1.53   2.65 -999 -999 -999 -99.9  75.2 1007.8 17.3  1.011 -99.9 -99.99 -9.99
2019/06/13 04:06 EDT    1.58   2.74 -999 -999 -999 -99.9  75.2 1007.8 17.2  1.011 -99.9 -99.99 -9.99
2019/06/13 04:12 EDT    1.64   2.78 -999 -999 -999 -99.9  75.2 1007.7 17.3  1.011 -99.9 -99.99 -9.99
2019/06/13 04:18 EDT    1.70   2.84 -999 -999 -999 -99.9  75.2 1007.7 17.3  1.011 -99.9 -99.99 -9.99
2019/06/13 04:24 EDT    1.75   2.88 -999 -999 -999 -99.9  75.2 1007.6 17.1  1.011 -99.9 -99.99 -9.99
2019/06/13 04:30 EDT    1.81   2.92 -999 -999 -999 -99.9  75.2 1007.6 17.1  1.011 -99.9 -99.99 -9.99
2019/06/13 04:36 EDT    1.86   2.97 -999 -999 -999 -99.9  75.2 1007.5 17.1  1.011 -99.9 -99.99 -9.99
2019/06/13 04:42 EDT    1.91   2.97 -999 -999 -999 -99.9  75.2 1007.4 17.2  1.011 -99.9 -99.99 -9.99
2019/06/13 04:48 EDT    1.96   3.08 -999 -999 -999 -99.9  75.2 1007.5 17.3  1.011 -99.9 -99.99 -9.99
2019/06/13 04:54 EDT    2.01   3.10 -999 -999 -999 -99.9  75.2 1007.4 17.3  1.011 -99.9 -99.99 -9.99
2019/06/13 05:00 EDT    2.05   3.14 -999 -999 -999 -99.9  75.2 1007.3 17.4  1.011 -99.9 -99.99 -9.99
2019/06/13 05:06 EDT    2.10   3.17 -999 -999 -999 -99.9  75.2 1007.4 17.3  1.011 -99.9 -99.99 -9.99
2019/06/13 05:12 EDT    2.14   3.21 -999 -999 -999 -99.9  75.2 1007.3 17.3  1.011 -99.9 -99.99 -9.99
2019/06/13 05:18 EDT    2.17   3.25 -999 -999 -999 -99.9  75.2 1007.3 17.3  1.011 -99.9 -99.99 -9.99
2019/06/13 05:24 EDT    2.21   3.27 -999 -999 -999 -99.9  75.4 1007.3 17.4  1.011 -99.9 -99.99 -9.99
2019/06/13 05:30 EDT    2.24   3.29 -999 -999 -999 -99.9  75.4 1007.3 17.4  1.011 -99.9 -99.99 -9.99
2019/06/13 05:36 EDT    2.27   3.31 -999 -999 -999 -99.9  75.4 1007.3 17.4  1.011 -99.9 -99.99 -9.99
2019/06/13 05:42 EDT    2.30   3.33 -999 -999 -999 -99.9  75.4 1007.3 17.5  1.011 -99.9 -99.99 -9.99
2019/06/13 05:48 EDT    2.33   3.36 -999 -999 -999 -99.9  75.4 1007.2 17.5  1.011 -99.9 -99.99 -9.99
2019/06/13 05:54 EDT    2.35   3.37 -999 -999 -999 -99.9  75.4 1007.1 17.6  1.011 -99.9 -99.99 -9.99
2019/06/13 06:00 EDT    2.37   3.39 -999 -999 -999 -99.9  75.4 1007.2 17.6  1.011 -99.9 -99.99 -9.99
2019/06/13 06:06 EDT    2.38   3.38 -999 -999 -999 -99.9  75.4 1007.0 17.7  1.011 -99.9 -99.99 -9.99
2019/06/13 06:12 EDT    2.40   3.38 -999 -999 -999 -99.9  75.4 1007.2 17.7  1.012 -99.9 -99.99 -9.99
2019/06/13 06:18 EDT    2.41   3.38 -999 -999 -999 -99.9  75.4 1007.3 17.7  1.012 -99.9 -99.99 -9.99
2019/06/13 06:24 EDT    2.41   3.39 -999 -999 -999 -99.9  75.4 1007.3 17.8  1.012 -99.9 -99.99 -9.99
2019/06/13 06:30 EDT    2.42   3.38 -999 -999 -999 -99.9  75.4 1007.2 17.7  1.011 -99.9 -99.99 -9.99
2019/06/13 06:36 EDT    2.42   3.38 -999 -999 -999 -99.9  75.4 1007.3 17.7  1.011 -99.9 -99.99 -9.99
2019/06/13 06:42 EDT    2.42   3.36 -999 -999 -999 -99.9  75.4 1007.4 17.7  1.011 -99.9 -99.99 -9.99
2019/06/13 06:48 EDT    2.41   3.36 -999 -999 -999 -99.9  75.4 1007.4 17.7  1.011 -99.9 -99.99 -9.99
2019/06/13 06:54 EDT    2.40   3.35 -999 -999 -999 -99.9  75.4 1007.4 17.7  1.011 -99.9 -99.99 -9.99
2019/06/13 07:00 EDT    2.39   3.39 -999 -999 -999 -99.9  75.4 1007.3 17.7  1.011 -99.9 -99.99 -9.99
2019/06/13 07:06 EDT    2.38   3.40 -999 -999 -999 -99.9  75.4 1007.9 17.7  1.011 -99.9 -99.99 -9.99
2019/06/13 07:12 EDT    2.36   3.37 -999 -999 -999 -99.9  75.4 1007.9 17.7  1.011 -99.9 -99.99 -9.99
2019/06/13 07:18 EDT    2.34   3.35 -999 -999 -999 -99.9  75.4 1008.1 17.7  1.011 -99.9 -99.99 -9.99
2019/06/13 07:24 EDT    2.31   3.35 -999 -999 -999 -99.9  75.4 1008.3 17.7  1.011 -99.9 -99.99 -9.99
2019/06/13 07:30 EDT    2.29   3.35 -999 -999 -999 -99.9  75.4 1008.3 17.7  1.011 -99.9 -99.99 -9.99
2019/06/13 07:36 EDT    2.26   3.34 -999 -999 -999 -99.9  75.4 1008.3 17.6  1.011 -99.9 -99.99 -9.99
2019/06/13 07:42 EDT    2.23   3.32 -999 -999 -999 -99.9  75.4 1008.4 17.7  1.011 -99.9 -99.99 -9.99
2019/06/13 07:48 EDT    2.19   3.27 -999 -999 -999 -99.9  75.4 1008.5 17.6  1.011 -99.9 -99.99 -9.99
2019/06/13 07:54 EDT    2.15   3.23 -999 -999 -999 -99.9  75.4 1008.5 17.6  1.011 -99.9 -99.99 -9.99
2019/06/13 08:00 EDT    2.12   3.21 -999 -999 -999 -99.9  75.4 1008.6 17.6  1.011 -99.9 -99.99 -9.99
2019/06/13 08:06 EDT    2.07   3.17 -999 -999 -999 -99.9  75.4 1008.7 17.6  1.011 -99.9 -99.99 -9.99
2019/06/13 08:12 EDT    2.03   3.14 -999 -999 -999 -99.9  75.4 1008.7 17.5  1.011 -99.9 -99.99 -9.99
2019/06/13 08:18 EDT    1.98   3.11 -999 -999 -999 -99.9  75.4 1008.7 17.6  1.011 -99.9 -99.99 -9.99
2019/06/13 08:24 EDT    1.93   3.09 -999 -999 -999 -99.9  75.4 1008.8 17.5  1.011 -99.9 -99.99 -9.99
2019/06/13 08:30 EDT    1.88   3.06 -999 -999 -999 -99.9  75.4 1008.8 17.6  1.011 -99.9 -99.99 -9.99
2019/06/13 08:36 EDT    1.83   3.00 -999 -999 -999 -99.9  75.4 1008.8 17.6  1.011 -99.9 -99.99 -9.99
2019/06/13 08:42 EDT    1.77   2.94 -999 -999 -999 -99.9  75.4 1008.9 17.6  1.011 -99.9 -99.99 -9.99
2019/06/13 08:48 EDT    1.72   2.88 -999 -999 -999 -99.9  75.2 1008.9 17.4  1.011 -99.9 -99.99 -9.99
2019/06/13 08:54 EDT    1.66   2.81 -999 -999 -999 -99.9  75.2 1009.0 17.5  1.011 -99.9 -99.99 -9.99
2019/06/13 09:00 EDT    1.60   2.74 -999 -999 -999 -99.9  75.2 1008.9 17.4  1.011 -99.9 -99.99 -9.99
2019/06/13 09:06 EDT    1.54   2.66 -999 -999 -999 -99.9  75.2 1009.0 17.5  1.011 -99.9 -99.99 -9.99
2019/06/13 09:12 EDT    1.48   2.61 -999 -999 -999 -99.9  75.2 1009.0 17.4  1.011 -99.9 -99.99 -9.99
2019/06/13 09:18 EDT    1.42   2.54 -999 -999 -999 -99.9  75.2 1009.0 17.5  1.011 -99.9 -99.99 -9.99
2019/06/13 09:24 EDT    1.35   2.48 -999 -999 -999 -99.9  75.2 1009.0 17.4  1.011 -99.9 -99.99 -9.99
2019/06/13 09:30 EDT    1.29   2.43 -999 -999 -999 -99.9  75.2 1009.1 17.4  1.011 -99.9 -99.99 -9.99
2019/06/13 09:36 EDT    1.23   2.41 -999 -999 -999 -99.9  75.2 1009.2 17.4  1.011 -99.9 -99.99 -9.99
2019/06/13 09:42 EDT    1.16   2.36 -999 -999 -999 -99.9  75.2 1009.2 17.3  1.011 -99.9 -99.99 -9.99
2019/06/13 09:48 EDT    1.10   2.33 -999 -999 -999 -99.9  75.2 1009.2 17.3  1.011 -99.9 -99.99 -9.99
2019/06/13 09:54 EDT    1.03   2.30 -999 -999 -999 -99.9  75.2 1009.3 17.3  1.011 -99.9 -99.99 -9.99
2019/06/13 10:00 EDT    0.97   2.25 -999 -999 -999 -99.9  75.2 1009.3 17.3  1.011 -99.9 -99.99 -9.99
2019/06/13 10:06 EDT    0.91   2.19 -999 -999 -999 -99.9  75.2 1009.3 17.3  1.011 -99.9 -99.99 -9.99
2019/06/13 10:12 EDT    0.84   2.15 -999 -999 -999 -99.9  75.2 1009.4 17.3  1.011 -99.9 -99.99 -9.99
2019/06/13 10:18 EDT    0.78   2.10 -999 -999 -999 -99.9  75.2 1009.4 17.3  1.011 -99.9 -99.99 -9.99
2019/06/13 10:24 EDT    0.72   2.04 -999 -999 -999 -99.9  75.2 1009.5 17.5  1.011 -99.9 -99.99 -9.99
2019/06/13 10:30 EDT    0.66   1.96 -999 -999 -999 -99.9  75.2 1009.5 17.4  1.011 -99.9 -99.99 -9.99
2019/06/13 10:36 EDT    0.60   1.92 -999 -999 -999 -99.9  75.4 1009.6 17.5  1.011 -99.9 -99.99 -9.99
2019/06/13 10:42 EDT    0.54   1.89 -999 -999 -999 -99.9  75.4 1009.7 17.5  1.011 -99.9 -99.99 -9.99
2019/06/13 10:48 EDT    0.49   1.82 -999 -999 -999 -99.9  75.2 1009.8 17.4  1.011 -99.9 -99.99 -9.99
2019/06/13 10:54 EDT    0.43   1.81 -999 -999 -999 -99.9  75.2 1010.0 17.3  1.011 -99.9 -99.99 -9.99
2019/06/13 11:00 EDT    0.38   1.79 -999 -999 -999 -99.9  75.2 1010.0 17.3  1.011 -99.9 -99.99 -9.99
2019/06/13 11:06 EDT    0.33   1.75 -999 -999 -999 -99.9  75.4 1010.2 17.3  1.011 -99.9 -99.99 -9.99
2019/06/13 11:12 EDT    0.28   1.71 -999 -999 -999 -99.9  75.4 1010.3 17.3  1.011 -99.9 -99.99 -9.99
2019/06/13 11:18 EDT    0.24   1.68 -999 -999 -999 -99.9  75.4 1010.3 17.2  1.011 -99.9 -99.99 -9.99
2019/06/13 11:24 EDT    0.20   1.66 -999 -999 -999 -99.9  75.4 1010.2 17.3  1.011 -99.9 -99.99 -9.99
2019/06/13 11:30 EDT    0.16   1.63 -999 -999 -999 -99.9  75.4 1010.2 17.3  1.011 -99.9 -99.99 -9.99
2019/06/13 11:36 EDT    0.12   1.60 -999 -999 -999 -99.9  75.4 1010.2 17.3  1.011 -99.9 -99.99 -9.99
2019/06/13 11:42 EDT    0.09   1.56 -999 -999 -999 -99.9  75.4 1010.3 17.3  1.011 -99.9 -99.99 -9.99
2019/06/13 11:48 EDT    0.05   1.52 -999 -999 -999 -99.9  75.4 1010.1 17.3  1.011 -99.9 -99.99 -9.99
2019/06/13 11:54 EDT    0.03   1.49 -999 -999 -999 -99.9  75.4 1010.1 17.3  1.011 -99.9 -99.99 -9.99
2019/06/13 12:00 EDT    0.00   1.45 -999 -999 -999 -99.9  75.4 1010.2 17.4  1.011 -99.9 -99.99 -9.99
2019/06/13 12:06 EDT   -0.02   1.45 -999 -999 -999 -99.9  75.4 1010.2 17.4  1.011 -99.9 -99.99 -9.99
2019/06/13 12:12 EDT   -0.04   1.41 -999 -999 -999 -99.9  75.4 1010.2 17.4  1.011 -99.9 -99.99 -9.99
2019/06/13 12:18 EDT   -0.05   1.39 -999 -999 -999 -99.9  75.4 1010.1 17.1  1.011 -99.9 -99.99 -9.99
2019/06/13 12:24 EDT   -0.06   1.36 -999 -999 -999 -99.9  75.6 1010.1 17.1  1.011 -99.9 -99.99 -9.99
2019/06/13 12:30 EDT   -0.07   1.34 -999 -999 -999 -99.9  75.6 1010.0 17.4  1.011 -99.9 -99.99 -9.99
2019/06/13 12:36 EDT   -0.08   1.33 -999 -999 -999 -99.9  75.6 1010.1 17.4  1.011 -99.9 -99.99 -9.99
2019/06/13 12:42 EDT   -0.08   1.33 -999 -999 -999 -99.9  75.6 1010.1 17.5  1.011 -99.9 -99.99 -9.99
2019/06/13 12:48 EDT   -0.07   1.30 -999 -999 -999 -99.9  75.6 1010.0 17.4  1.011 -99.9 -99.99 -9.99
2019/06/13 12:54 EDT   -0.07   1.32 -999 -999 -999 -99.9  75.6 1010.0 17.4  1.011 -99.9 -99.99 -9.99
2019/06/13 13:00 EDT   -0.06   1.28 -999 -999 -999 -99.9  75.6 1010.0 17.3  1.011 -99.9 -99.99 -9.99
2019/06/13 13:06 EDT   -0.04   1.27 -999 -999 -999 -99.9  75.6 1009.9 17.4  1.011 -99.9 -99.99 -9.99
2019/06/13 13:12 EDT   -0.03   1.28 -999 -999 -999 -99.9  75.6 1009.9 17.3  1.011 -99.9 -99.99 -9.99
2019/06/13 13:18 EDT   -0.01   1.28 -999 -999 -999 -99.9  75.6 1009.9 17.3  1.011 -99.9 -99.99 -9.99
2019/06/13 13:24 EDT    0.02   1.29 -999 -999 -999 -99.9  75.6 1009.9 17.4  1.011 -99.9 -99.99 -9.99
2019/06/13 13:30 EDT    0.05   1.29 -999 -999 -999 -99.9  75.6 1009.8 17.2  1.011 -99.9 -99.99 -9.99
2019/06/13 13:36 EDT    0.08   1.30 -999 -999 -999 -99.9  75.9 1009.7 17.3  1.011 -99.9 -99.99 -9.99
2019/06/13 13:42 EDT    0.11   1.31 -999 -999 -999 -99.9  75.6 1009.6 17.4  1.011 -99.9 -99.99 -9.99
2019/06/13 13:48 EDT    0.15   1.32 -999 -999 -999 -99.9  75.6 1009.5 17.3  1.011 -99.9 -99.99 -9.99
2019/06/13 13:54 EDT    0.19   1.36 -999 -999 -999 -99.9  75.6 1009.4 17.3  1.011 -99.9 -99.99 -9.99
2019/06/13 14:00 EDT    0.24   1.38 -999 -999 -999 -99.9  75.6 1009.5 17.3  1.011 -99.9 -99.99 -9.99
2019/06/13 14:06 EDT    0.28   1.41 -999 -999 -999 -99.9  75.7 1009.4 17.3  1.011 -99.9 -99.99 -9.99
2019/06/13 14:12 EDT    0.33   1.44 -999 -999 -999 -99.9  75.7 1009.3 17.3  1.011 -99.9 -99.99 -9.99
2019/06/13 14:18 EDT    0.38   1.47 -999 -999 -999 -99.9  75.6 1009.3 17.3  1.011 -99.9 -99.99 -9.99
2019/06/13 14:24 EDT    0.44   1.51 -999 -999 -999 -99.9  75.6 1009.3 17.3  1.011 -99.9 -99.99 -9.99
2019/06/13 14:30 EDT    0.50   1.55 -999 -999 -999 -99.9  75.7 1009.4 17.4  1.011 -99.9 -99.99 -9.99
2019/06/13 14:36 EDT    0.56   1.58 -999 -999 -999 -99.9  75.9 1009.4 16.9  1.011 -99.9 -99.99 -9.99
2019/06/13 14:42 EDT    0.62   1.64 -999 -999 -999 -99.9  75.9 1009.4 16.8  1.011 -99.9 -99.99 -9.99
2019/06/13 14:48 EDT    0.68   1.68 -999 -999 -999 -99.9  75.7 1009.4 16.9  1.011 -99.9 -99.99 -9.99
2019/06/13 14:54 EDT    0.75   1.73 -999 -999 -999 -99.9  75.7 1009.3 16.8  1.011 -99.9 -99.99 -9.99
2019/06/13 15:00 EDT    0.81   1.76 -999 -999 -999 -99.9  75.7 1009.3 16.8  1.011 -99.9 -99.99 -9.99
2019/06/13 15:06 EDT    0.88   1.81 -999 -999 -999 -99.9  75.7 1009.3 16.8  1.011 -99.9 -99.99 -9.99
2019/06/13 15:12 EDT    0.95   1.87 -999 -999 -999 -99.9  75.7 1009.3 16.9  1.011 -99.9 -99.99 -9.99
2019/06/13 15:18 EDT    1.02   1.93 -999 -999 -999 -99.9  75.7 1009.3 16.7  1.011 -99.9 -99.99 -9.99
2019/06/13 15:24 EDT    1.09   2.00 -999 -999 -999 -99.9  75.7 1009.3 16.9  1.011 -99.9 -99.99 -9.99
2019/06/13 15:30 EDT    1.17   2.06 -999 -999 -999 -99.9  75.7 1009.3 17.0  1.011 -99.9 -99.99 -9.99
2019/06/13 15:36 EDT    1.24   2.12 -999 -999 -999 -99.9  75.7 1009.4 16.9  1.011 -99.9 -99.99 -9.99
2019/06/13 15:42 EDT    1.31   2.20 -999 -999 -999 -99.9  75.9 1009.2 16.8  1.011 -99.9 -99.99 -9.99
2019/06/13 15:48 EDT    1.39   2.26 -999 -999 -999 -99.9  75.9 1009.3 16.9  1.011 -99.9 -99.99 -9.99
2019/06/13 15:54 EDT    1.46   2.34 -999 -999 -999 -99.9  75.9 1009.2 16.8  1.011 -99.9 -99.99 -9.99
2019/06/13 16:00 EDT    1.54   2.41 -999 -999 -999 -99.9  75.9 1009.2 16.7  1.011 -99.9 -99.99 -9.99
2019/06/13 16:06 EDT    1.61   2.49 -999 -999 -999 -99.9  75.9 1009.2 16.7  1.011 -99.9 -99.99 -9.99
2019/06/13 16:12 EDT    1.68   2.51 -999 -999 -999 -99.9  75.9 1009.1 16.6  1.011 -99.9 -99.99 -9.99
2019/06/13 16:18 EDT    1.76   2.56 -999 -999 -999 -99.9  75.9 1009.1 16.6  1.011 -99.9 -99.99 -9.99
2019/06/13 16:24 EDT    1.83   2.67 -999 -999 -999 -99.9  75.9 1009.1 16.7  1.011 -99.9 -99.99 -9.99
2019/06/13 16:30 EDT    1.90   2.73 -999 -999 -999 -99.9  75.9 1009.1 16.6  1.011 -99.9 -99.99 -9.99
2019/06/13 16:36 EDT    1.97   2.73 -999 -999 -999 -99.9  75.9 1009.1 16.6  1.011 -99.9 -99.99 -9.99
2019/06/13 16:42 EDT    2.04   2.83 -999 -999 -999 -99.9  75.9 1009.0 16.7  1.011 -99.9 -99.99 -9.99
2019/06/13 16:48 EDT    2.10   2.88 -999 -999 -999 -99.9  75.9 1009.0 16.7  1.011 -99.9 -99.99 -9.99
2019/06/13 16:54 EDT    2.17   3.00 -999 -999 -999 -99.9  75.9 1008.9 16.7  1.011 -99.9 -99.99 -9.99
2019/06/13 17:00 EDT    2.23   3.03 -999 -999 -999 -99.9  75.7 1008.8 16.7  1.011 -99.9 -99.99 -9.99
2019/06/13 17:06 EDT    2.29   3.07 -999 -999 -999 -99.9  75.9 1008.8 16.6  1.011 -99.9 -99.99 -9.99
2019/06/13 17:12 EDT    2.35   3.16 -999 -999 -999 -99.9  75.9 1008.8 16.6  1.011 -99.9 -99.99 -9.99
2019/06/13 17:18 EDT    2.41   3.21 -999 -999 -999 -99.9  75.9 1008.8 16.6  1.011 -99.9 -99.99 -9.99
2019/06/13 17:24 EDT    2.46   3.24 -999 -999 -999 -99.9  75.9 1008.8 16.6  1.011 -99.9 -99.99 -9.99
2019/06/13 17:30 EDT    2.52   3.33 -999 -999 -999 -99.9  75.9 1008.8 16.7  1.011 -99.9 -99.99 -9.99
2019/06/13 17:36 EDT    2.57   3.34 -999 -999 -999 -99.9  75.9 1008.8 16.7  1.011 -99.9 -99.99 -9.99
2019/06/13 17:42 EDT    2.61   3.39 -999 -999 -999 -99.9  75.9 1008.8 16.6  1.011 -99.9 -99.99 -9.99
2019/06/13 17:48 EDT    2.66   3.42 -999 -999 -999 -99.9  75.9 1008.7 16.6  1.011 -99.9 -99.99 -9.99
2019/06/13 17:54 EDT    2.70   3.46 -999 -999 -999 -99.9  75.9 1008.6 16.7  1.011 -99.9 -99.99 -9.99
2019/06/13 18:00 EDT    2.74   3.48 -999 -999 -999 -99.9  75.9 1008.6 16.6  1.011 -99.9 -99.99 -9.99
2019/06/13 18:06 EDT    2.78   3.51 -999 -999 -999 -99.9  75.9 1008.6 16.6  1.011 -99.9 -99.99 -9.99
2019/06/13 18:12 EDT    2.81   3.53 -999 -999 -999 -99.9  75.9 1008.7 16.6  1.011 -99.9 -99.99 -9.99
2019/06/13 18:18 EDT    2.84   3.53 -999 -999 -999 -99.9  75.9 1008.8 16.6  1.011 -99.9 -99.99 -9.99
2019/06/13 18:24 EDT    2.86   3.56 -999 -999 -999 -99.9  75.9 1008.9 16.7  1.011 -99.9 -99.99 -9.99
2019/06/13 18:30 EDT    2.89   3.56 -999 -999 -999 -99.9  75.9 1008.9 16.7  1.011 -99.9 -99.99 -9.99
2019/06/13 18:36 EDT    2.91   3.58 -999 -999 -999 -99.9  75.9 1009.0 16.9  1.011 -99.9 -99.99 -9.99
2019/06/13 18:42 EDT    2.92   3.59 -999 -999 -999 -99.9  75.9 1009.1 16.8  1.011 -99.9 -99.99 -9.99
2019/06/13 18:48 EDT    2.94   3.60 -999 -999 -999 -99.9  75.9 1009.2 16.8  1.011 -99.9 -99.99 -9.99
2019/06/13 18:54 EDT    2.95   3.60 -999 -999 -999 -99.9  75.7 1009.1 16.9  1.011 -99.9 -99.99 -9.99
2019/06/13 19:00 EDT    2.95   3.60 -999 -999 -999 -99.9  75.7 1009.2 16.9  1.011 -99.9 -99.99 -9.99
2019/06/13 19:06 EDT    2.95   3.59 -999 -999 -999 -99.9  75.7 1009.2 16.9  1.011 -99.9 -99.99 -9.99
2019/06/13 19:12 EDT    2.95   3.60 -999 -999 -999 -99.9  75.9 1009.3 16.8  1.011 -99.9 -99.99 -9.99
2019/06/13 19:18 EDT    2.95   3.58 -999 -999 -999 -99.9  75.9 1009.4 16.8  1.011 -99.9 -99.99 -9.99
2019/06/13 19:24 EDT    2.94   3.57 -999 -999 -999 -99.9  75.9 1009.6 16.4  1.010 -99.9 -99.99 -9.99
2019/06/13 19:30 EDT    2.93   3.56 -999 -999 -999 -99.9  75.9 1009.6 16.8  1.011 -99.9 -99.99 -9.99
2019/06/13 19:36 EDT    2.91   3.55 -999 -999 -999 -99.9  75.9 1009.7 16.6  1.011 -99.9 -99.99 -9.99
2019/06/13 19:42 EDT    2.89   3.52 -999 -999 -999 -99.9  75.9 1009.8 16.6  1.011 -99.9 -99.99 -9.99
2019/06/13 19:48 EDT    2.87   3.50 -999 -999 -999 -99.9  75.9 1009.9 16.6  1.011 -99.9 -99.99 -9.99
2019/06/13 19:54 EDT    2.85   3.49 -999 -999 -999 -99.9  75.9 1010.1 16.6  1.011 -99.9 -99.99 -9.99
2019/06/13 20:00 EDT    2.82   3.46 -999 -999 -999 -99.9  75.9 1010.1 16.6  1.011 -99.9 -99.99 -9.99
2019/06/13 20:06 EDT    2.79   3.44 -999 -999 -999 -99.9  75.9 1010.4 16.7  1.011 -99.9 -99.99 -9.99
2019/06/13 20:12 EDT    2.75   3.46 -999 -999 -999 -99.9  75.9 1010.7 16.6  1.011 -99.9 -99.99 -9.99
2019/06/13 20:18 EDT    2.71   3.44 -999 -999 -999 -99.9  75.9 1010.9 16.6  1.011 -99.9 -99.99 -9.99
2019/06/13 20:24 EDT    2.67   3.40 -999 -999 -999 -99.9  75.7 1011.0 16.6  1.011 -99.9 -99.99 -9.99
2019/06/13 20:30 EDT    2.63   3.38 -999 -999 -999 -99.9  75.7 1011.2 16.6  1.011 -99.9 -99.99 -9.99
2019/06/13 20:36 EDT    2.58   3.36 -999 -999 -999 -99.9  75.7 1011.2 16.6  1.011 -99.9 -99.99 -9.99
2019/06/13 20:42 EDT    2.53   3.29 -999 -999 -999 -99.9  75.7 1011.7 16.6  1.011 -99.9 -99.99 -9.99
2019/06/13 20:48 EDT    2.48   3.21 -999 -999 -999 -99.9  75.7 1011.8 16.6  1.011 -99.9 -99.99 -9.99
2019/06/13 20:54 EDT    2.43   3.13 -999 -999 -999 -99.9  75.7 1011.7 16.6  1.011 -99.9 -99.99 -9.99
2019/06/13 21:00 EDT    2.37   3.04 -999 -999 -999 -99.9  75.7 1011.5 16.7  1.011 -99.9 -99.99 -9.99
2019/06/13 21:06 EDT    2.31   2.94 -999 -999 -999 -99.9  75.7 1011.1 16.7  1.011 -99.9 -99.99 -9.99
2019/06/13 21:12 EDT    2.25   2.88 -999 -999 -999 -99.9  75.7 1010.9 16.7  1.011 -99.9 -99.99 -9.99
2019/06/13 21:18 EDT    2.19   2.83 -999 -999 -999 -99.9  75.7 1011.2 16.7  1.011 -99.9 -99.99 -9.99
2019/06/13 21:24 EDT    2.12   2.73 -999 -999 -999 -99.9  75.7 1011.5 16.7  1.011 -99.9 -99.99 -9.99
2019/06/13 21:30 EDT    2.06   2.64 -999 -999 -999 -99.9  75.7 1011.4 16.7  1.011 -99.9 -99.99 -9.99
2019/06/13 21:36 EDT    1.99   2.58 -999 -999 -999 -99.9  75.7 1011.4 16.8  1.011 -99.9 -99.99 -9.99
2019/06/13 21:42 EDT    1.92   2.51 -999 -999 -999 -99.9  75.7 1011.5 16.8  1.011 -99.9 -99.99 -9.99
2019/06/13 21:48 EDT    1.85   2.46 -999 -999 -999 -99.9  75.7 1011.5 16.8  1.011 -99.9 -99.99 -9.99
2019/06/13 21:54 EDT    1.78   2.39 -999 -999 -999 -99.9  75.7 1011.5 16.8  1.011 -99.9 -99.99 -9.99
2019/06/13 22:00 EDT    1.71   2.33 -999 -999 -999 -99.9  75.7 1011.6 16.8  1.011 -99.9 -99.99 -9.99
2019/06/13 22:06 EDT    1.63   2.27 -999 -999 -999 -99.9  75.7 1011.7 16.8  1.011 -99.9 -99.99 -9.99
2019/06/13 22:12 EDT    1.56   2.22 -999 -999 -999 -99.9  75.7 1011.8 16.8  1.011 -99.9 -99.99 -9.99
2019/06/13 22:18 EDT    1.49   2.15 -999 -999 -999 -99.9  75.7 1011.9 16.8  1.011 -99.9 -99.99 -9.99
2019/06/13 22:24 EDT    1.41   2.07 -999 -999 -999 -99.9  75.6 1012.1 16.8  1.011 -99.9 -99.99 -9.99
2019/06/13 22:30 EDT    1.34   1.98 -999 -999 -999 -99.9  75.7 1012.3 16.8  1.011 -99.9 -99.99 -9.99
2019/06/13 22:36 EDT    1.27   1.90 -999 -999 -999 -99.9  75.7 1012.3 16.8  1.011 -99.9 -99.99 -9.99
2019/06/13 22:42 EDT    1.20   1.82 -999 -999 -999 -99.9  75.6 1012.3 16.8  1.011 -99.9 -99.99 -9.99
2019/06/13 22:48 EDT    1.12   1.76 -999 -999 -999 -99.9  75.6 1012.3 16.8  1.011 -99.9 -99.99 -9.99
2019/06/13 22:54 EDT    1.05   1.69 -999 -999 -999 -99.9  75.7 1012.3 16.8  1.011 -99.9 -99.99 -9.99
2019/06/13 23:00 EDT    0.98   1.61 -999 -999 -999 -99.9  75.7 1012.3 16.8  1.011 -99.9 -99.99 -9.99
2019/06/13 23:06 EDT    0.91   1.54 -999 -999 -999 -99.9  75.7 1012.3 16.8  1.011 -99.9 -99.99 -9.99
2019/06/13 23:12 EDT    0.84   1.48 -999 -999 -999 -99.9  75.7 1012.3 16.8  1.011 -99.9 -99.99 -9.99
2019/06/13 23:18 EDT    0.78   1.43 -999 -999 -999 -99.9  75.7 1012.4 16.8  1.011 -99.9 -99.99 -9.99
2019/06/13 23:24 EDT    0.71   1.38 -999 -999 -999 -99.9  75.7 1012.4 16.8  1.011 -99.9 -99.99 -9.99
2019/06/13 23:30 EDT    0.65   1.31 -999 -999 -999 -99.9  75.7 1012.3 16.8  1.011 -99.9 -99.99 -9.99
2019/06/13 23:36 EDT    0.59   1.26 -999 -999 -999 -99.9  75.7 1012.3 16.8  1.011 -99.9 -99.99 -9.99
2019/06/13 23:42 EDT    0.53   1.21 -999 -999 -999 -99.9  75.6 1012.4 16.7  1.011 -99.9 -99.99 -9.99
2019/06/13 23:48 EDT    0.48   1.17 -999 -999 -999 -99.9  75.6 1012.4 16.7  1.011 -99.9 -99.99 -9.99
2019/06/13 23:54 EDT    0.42   1.12 -999 -999 -999 -99.9  75.6 1012.4 16.7  1.011 -99.9 -99.99 -9.99
2019/06/14 00:00 EDT    0.37   1.08 -999 -999 -999 -99.9  75.6 1012.4 16.7  1.011 -99.9 -99.99 -9.99
2019/06/14 00:06 EDT    0.32   1.04 -999 -999 -999 -99.9  75.6 1012.5 16.7  1.011 -99.9 -99.99 -9.99
2019/06/14 00:12 EDT    0.28   1.00 -999 -999 -999 -99.9  75.6 1012.5 16.7  1.011 -99.9 -99.99 -9.99
2019/06/14 00:18 EDT    0.23   0.99 -999 -999 -999 -99.9  75.6 1012.9 16.7  1.011 -99.9 -99.99 -9.99
2019/06/14 00:24 EDT    0.19   0.95 -999 -999 -999 -99.9  75.6 1013.1 16.7  1.011 -99.9 -99.99 -9.99
2019/06/14 00:30 EDT    0.16   0.94 -999 -999 -999 -99.9  75.6 1013.0 16.7  1.011 -99.9 -99.99 -9.99
2019/06/14 00:36 EDT    0.12   0.92 -999 -999 -999 -99.9  75.6 1013.0 16.7  1.011 -99.9 -99.99 -9.99
2019/06/14 00:42 EDT    0.09   0.90 -999 -999 -999 -99.9  75.6 1013.0 16.7  1.011 -99.9 -99.99 -9.99
2019/06/14 00:48 EDT    0.07   0.90 -999 -999 -999 -99.9  75.6 1013.1 16.7  1.011 -99.9 -99.99 -9.99
2019/06/14 00:54 EDT    0.04   0.87 -999 -999 -999 -99.9  75.4 1013.2 16.7  1.011 -99.9 -99.99 -9.99
2019/06/14 01:00 EDT    0.02   0.84 -999 -999 -999 -99.9  75.4 1013.3 16.7  1.011 -99.9 -99.99 -9.99
2019/06/14 01:06 EDT    0.01   0.81 -999 -999 -999 -99.9  75.4 1013.2 16.7  1.011 -99.9 -99.99 -9.99
2019/06/14 01:12 EDT   -0.00   0.79 -999 -999 -999 -99.9  75.4 1013.4 16.7  1.011 -99.9 -99.99 -9.99
2019/06/14 01:18 EDT   -0.01   0.78 -999 -999 -999 -99.9  75.6 1013.4 16.7  1.011 -99.9 -99.99 -9.99
2019/06/14 01:24 EDT   -0.02   0.76 -999 -999 -999 -99.9  75.4 1013.4 16.7  1.011 -99.9 -99.99 -9.99
2019/06/14 01:30 EDT   -0.02   0.80 -999 -999 -999 -99.9  75.6 1013.4 16.7  1.011 -99.9 -99.99 -9.99
2019/06/14 01:36 EDT   -0.02   0.76 -999 -999 -999 -99.9  75.4 1013.4 16.7  1.011 -99.9 -99.99 -9.99
2019/06/14 01:42 EDT   -0.01   0.77 -999 -999 -999 -99.9  75.6 1013.5 16.8  1.011 -99.9 -99.99 -9.99
2019/06/14 01:48 EDT   -0.01   0.77 -999 -999 -999 -99.9  75.6 1013.5 16.8  1.011 -99.9 -99.99 -9.99
2019/06/14 01:54 EDT    0.01   0.82 -999 -999 -999 -99.9  75.6 1013.5 16.9  1.011 -99.9 -99.99 -9.99
2019/06/14 02:00 EDT    0.02   0.84 -999 -999 -999 -99.9  75.6 1013.5 16.8  1.011 -99.9 -99.99 -9.99
2019/06/14 02:06 EDT    0.04   0.89 -999 -999 -999 -99.9  75.6 1013.6 16.8  1.011 -99.9 -99.99 -9.99
2019/06/14 02:12 EDT    0.07   0.95 -999 -999 -999 -99.9  75.6 1013.6 16.8  1.011 -99.9 -99.99 -9.99
2019/06/14 02:18 EDT    0.09   0.99 -999 -999 -999 -99.9  75.4 1013.6 16.8  1.011 -99.9 -99.99 -9.99
2019/06/14 02:24 EDT    0.12   1.04 -999 -999 -999 -99.9  75.6 1013.7 16.8  1.011 -99.9 -99.99 -9.99
2019/06/14 02:30 EDT    0.15   1.08 -999 -999 -999 -99.9  75.6 1013.8 16.8  1.011 -99.9 -99.99 -9.99
2019/06/14 02:36 EDT    0.19   1.11 -999 -999 -999 -99.9  75.4 1013.8 16.8  1.011 -99.9 -99.99 -9.99
2019/06/14 02:42 EDT    0.22   1.17 -999 -999 -999 -99.9  75.4 1013.7 16.8  1.011 -99.9 -99.99 -9.99
2019/06/14 02:48 EDT    0.26   1.19 -999 -999 -999 -99.9  75.4 1013.7 16.8  1.011 -99.9 -99.99 -9.99
2019/06/14 02:54 EDT    0.31   1.26 -999 -999 -999 -99.9  75.2 1013.8 16.8  1.011 -99.9 -99.99 -9.99
2019/06/14 03:00 EDT    0.35   1.29 -999 -999 -999 -99.9  75.4 1013.9 16.7  1.011 -99.9 -99.99 -9.99
2019/06/14 03:06 EDT    0.40   1.36 -999 -999 -999 -99.9  75.2 1014.1 16.8  1.011 -99.9 -99.99 -9.99
2019/06/14 03:12 EDT    0.45   1.41 -999 -999 -999 -99.9  75.2 1014.2 16.8  1.011 -99.9 -99.99 -9.99
2019/06/14 03:18 EDT    0.50   1.47 -999 -999 -999 -99.9  75.2 1014.3 16.8  1.011 -99.9 -99.99 -9.99
2019/06/14 03:24 EDT    0.55   1.52 -999 -999 -999 -99.9  75.4 1014.4 16.9  1.011 -99.9 -99.99 -9.99
2019/06/14 03:30 EDT    0.61   1.58 -999 -999 -999 -99.9  75.6 1014.4 16.8  1.011 -99.9 -99.99 -9.99
2019/06/14 03:36 EDT    0.67   1.62 -999 -999 -999 -99.9  75.2 1014.5 16.8  1.011 -99.9 -99.99 -9.99
2019/06/14 03:42 EDT    0.72   1.68 -999 -999 -999 -99.9  75.2 1014.6 16.8  1.011 -99.9 -99.99 -9.99
2019/06/14 03:48 EDT    0.78   1.73 -999 -999 -999 -99.9  75.0 1014.6 16.7  1.011 -99.9 -99.99 -9.99
2019/06/14 03:54 EDT    0.84   1.79 -999 -999 -999 -99.9  75.0 1014.8 16.7  1.011 -99.9 -99.99 -9.99
2019/06/14 04:00 EDT    0.91   1.84 -999 -999 -999 -99.9  75.0 1014.9 16.7  1.011 -99.9 -99.99 -9.99
2019/06/14 04:06 EDT    0.97   1.90 -999 -999 -999 -99.9  75.0 1014.9 16.7  1.011 -99.9 -99.99 -9.99
2019/06/14 04:12 EDT    1.03   1.96 -999 -999 -999 -99.9  74.8 1014.9 16.8  1.011 -99.9 -99.99 -9.99
2019/06/14 04:18 EDT    1.09   2.06 -999 -999 -999 -99.9  75.0 1014.8 16.8  1.011 -99.9 -99.99 -9.99
2019/06/14 04:24 EDT    1.16   2.12 -999 -999 -999 -99.9  75.0 1015.0 16.8  1.011 -99.9 -99.99 -9.99
2019/06/14 04:30 EDT    1.22   2.18 -999 -999 -999 -99.9  74.8 1015.0 16.8  1.011 -99.9 -99.99 -9.99
2019/06/14 04:36 EDT    1.28   2.23 -999 -999 -999 -99.9  74.8 1015.0 16.8  1.011 -99.9 -99.99 -9.99
2019/06/14 04:42 EDT    1.35   2.31 -999 -999 -999 -99.9  74.8 1015.1 16.8  1.011 -99.9 -99.99 -9.99
2019/06/14 04:48 EDT    1.41   2.38 -999 -999 -999 -99.9  74.7 1015.2 16.7  1.011 -99.9 -99.99 -9.99
2019/06/14 04:54 EDT    1.47   2.44 -999 -999 -999 -99.9  74.7 1015.2 16.7  1.011 -99.9 -99.99 -9.99
2019/06/14 05:00 EDT    1.53   2.51 -999 -999 -999 -99.9  74.7 1015.3 16.7  1.011 -99.9 -99.99 -9.99
2019/06/14 05:06 EDT    1.59   2.54 -999 -999 -999 -99.9  74.7 1015.4 16.7  1.011 -99.9 -99.99 -9.99
2019/06/14 05:12 EDT    1.65   2.61 -999 -999 -999 -99.9  74.7 1015.4 16.6  1.011 -99.9 -99.99 -9.99
2019/06/14 05:18 EDT    1.71   2.65 -999 -999 -999 -99.9  74.7 1015.4 16.6  1.011 -99.9 -99.99 -9.99
2019/06/14 05:24 EDT    1.76   2.68 -999 -999 -999 -99.9  74.7 1015.3 16.7  1.011 -99.9 -99.99 -9.99
2019/06/14 05:30 EDT    1.82   2.74 -999 -999 -999 -99.9  74.7 1015.4 16.7  1.011 -99.9 -99.99 -9.99
2019/06/14 05:36 EDT    1.87   2.77 -999 -999 -999 -99.9  74.8 1015.3 16.7  1.011 -99.9 -99.99 -9.99
2019/06/14 05:42 EDT    1.92   2.79 -999 -999 -999 -99.9  74.8 1015.3 16.7  1.011 -99.9 -99.99 -9.99
2019/06/14 05:48 EDT    1.97   2.82 -999 -999 -999 -99.9  74.7 1015.3 16.7  1.011 -99.9 -99.99 -9.99
2019/06/14 05:54 EDT    2.01   2.85 -999 -999 -999 -99.9  74.7 1015.4 16.7  1.011 -99.9 -99.99 -9.99
2019/06/14 06:00 EDT    2.06   2.89 -999 -999 -999 -99.9  74.8 1015.6 16.8  1.011 -99.9 -99.99 -9.99
2019/06/14 06:06 EDT    2.10   2.93 -999 -999 -999 -99.9  74.7 1015.7 16.7  1.011 -99.9 -99.99 -9.99
2019/06/14 06:12 EDT    2.14   2.95 -999 -999 -999 -99.9  74.8 1015.8 16.7  1.011 -99.9 -99.99 -9.99
2019/06/14 06:18 EDT    2.18   2.97 -999 -999 -999 -99.9  74.7 1015.8 16.7  1.011 -99.9 -99.99 -9.99
2019/06/14 06:24 EDT    2.21   3.00 -999 -999 -999 -99.9  74.5 1016.0 16.7  1.011 -99.9 -99.99 -9.99
2019/06/14 06:30 EDT    2.24   3.03 -999 -999 -999 -99.9  74.5 1016.1 16.6  1.011 -99.9 -99.99 -9.99
2019/06/14 06:36 EDT    2.27   3.06 -999 -999 -999 -99.9  74.5 1016.2 16.7  1.011 -99.9 -99.99 -9.99
2019/06/14 06:42 EDT    2.30   3.09 -999 -999 -999 -99.9  74.5 1016.2 16.7  1.011 -99.9 -99.99 -9.99
2019/06/14 06:48 EDT    2.32   3.10 -999 -999 -999 -99.9  74.5 1016.3 16.7  1.011 -99.9 -99.99 -9.99
2019/06/14 06:54 EDT    2.34   3.12 -999 -999 -999 -99.9  74.5 1016.3 16.7  1.011 -99.9 -99.99 -9.99
2019/06/14 07:00 EDT    2.36   3.14 -999 -999 -999 -99.9  74.3 1016.3 16.7  1.011 -99.9 -99.99 -9.99
2019/06/14 07:06 EDT    2.38   3.15 -999 -999 -999 -99.9  74.5 1016.2 16.7  1.011 -99.9 -99.99 -9.99
2019/06/14 07:12 EDT    2.39   3.16 -999 -999 -999 -99.9  74.5 1016.4 16.7  1.011 -99.9 -99.99 -9.99
2019/06/14 07:18 EDT    2.40   3.15 -999 -999 -999 -99.9  74.3 1016.5 16.7  1.011 -99.9 -99.99 -9.99
2019/06/14 07:24 EDT    2.40   3.14 -999 -999 -999 -99.9  74.5 1016.5 16.7  1.011 -99.9 -99.99 -9.99
2019/06/14 07:30 EDT    2.40   3.15 -999 -999 -999 -99.9  74.3 1016.5 16.7  1.011 -99.9 -99.99 -9.99
2019/06/14 07:36 EDT    2.40   3.15 -999 -999 -999 -99.9  74.5 1016.6 16.7  1.011 -99.9 -99.99 -9.99
2019/06/14 07:42 EDT    2.40   3.12 -999 -999 -999 -99.9  74.3 1016.7 16.7  1.011 -99.9 -99.99 -9.99
2019/06/14 07:48 EDT    2.39   3.11 -999 -999 -999 -99.9  74.3 1016.8 16.7  1.011 -99.9 -99.99 -9.99
2019/06/14 07:54 EDT    2.38   3.11 -999 -999 -999 -99.9  74.3 1016.9 16.7  1.011 -99.9 -99.99 -9.99
2019/06/14 08:00 EDT    2.36   3.09 -999 -999 -999 -99.9  74.3 1016.9 16.7  1.011 -99.9 -99.99 -9.99
2019/06/14 08:06 EDT    2.35   3.09 -999 -999 -999 -99.9  74.3 1017.0 16.7  1.011 -99.9 -99.99 -9.99
2019/06/14 08:12 EDT    2.33   3.07 -999 -999 -999 -99.9  74.3 1017.1 16.7  1.011 -99.9 -99.99 -9.99
2019/06/14 08:18 EDT    2.30   3.05 -999 -999 -999 -99.9  74.3 1017.1 16.7  1.011 -99.9 -99.99 -9.99
2019/06/14 08:24 EDT    2.28   3.03 -999 -999 -999 -99.9  74.3 1017.1 16.7  1.011 -99.9 -99.99 -9.99
2019/06/14 08:30 EDT    2.25   3.02 -999 -999 -999 -99.9  74.3 1017.2 16.7  1.011 -99.9 -99.99 -9.99
2019/06/14 08:36 EDT    2.22   2.99 -999 -999 -999 -99.9  74.3 1017.2 16.7  1.011 -99.9 -99.99 -9.99
2019/06/14 08:42 EDT    2.18   2.96 -999 -999 -999 -99.9  74.5 1017.6 16.7  1.011 -99.9 -99.99 -9.99
2019/06/14 08:48 EDT    2.14   2.91 -999 -999 -999 -99.9  74.3 1017.7 16.7  1.011 -99.9 -99.99 -9.99
2019/06/14 08:54 EDT    2.10   2.85 -999 -999 -999 -99.9  74.3 1017.7 16.7  1.011 -99.9 -99.99 -9.99
2019/06/14 09:00 EDT    2.06   2.81 -999 -999 -999 -99.9  74.5 1017.9 16.8  1.011 -99.9 -99.99 -9.99
2019/06/14 09:06 EDT    2.02   2.78 -999 -999 -999 -99.9  74.5 1017.9 16.7  1.011 -99.9 -99.99 -9.99
2019/06/14 09:12 EDT    1.97   2.71 -999 -999 -999 -99.9  74.5 1018.1 16.7  1.011 -99.9 -99.99 -9.99
2019/06/14 09:18 EDT    1.92   2.64 -999 -999 -999 -99.9  74.3 1018.3 16.7  1.011 -99.9 -99.99 -9.99
2019/06/14 09:24 EDT    1.87   2.58 -999 -999 -999 -99.9  74.5 1018.3 16.7  1.011 -99.9 -99.99 -9.99
2019/06/14 09:30 EDT    1.82   2.53 -999 -999 -999 -99.9  74.5 1018.4 16.7  1.011 -99.9 -99.99 -9.99
2019/06/14 09:36 EDT    1.76   2.48 -999 -999 -999 -99.9  74.3 1018.5 16.8  1.011 -99.9 -99.99 -9.99
2019/06/14 09:42 EDT    1.70   2.42 -999 -999 -999 -99.9  74.5 1018.5 16.8  1.011 -99.9 -99.99 -9.99
2019/06/14 09:48 EDT    1.64   2.36 -999 -999 -999 -99.9  74.5 1018.6 16.8  1.011 -99.9 -99.99 -9.99
2019/06/14 09:54 EDT    1.58   2.29 -999 -999 -999 -99.9  74.5 1018.7 16.8  1.011 -99.9 -99.99 -9.99
2019/06/14 10:00 EDT    1.52   2.22 -999 -999 -999 -99.9  74.5 1018.8 16.7  1.011 -99.9 -99.99 -9.99
2019/06/14 10:06 EDT    1.46   2.16 -999 -999 -999 -99.9  74.5 1018.8 16.7  1.011 -99.9 -99.99 -9.99
2019/06/14 10:12 EDT    1.40   2.09 -999 -999 -999 -99.9  74.5 1018.8 16.8  1.011 -99.9 -99.99 -9.99
2019/06/14 10:18 EDT    1.33   2.03 -999 -999 -999 -99.9  74.3 1018.9 16.8  1.011 -99.9 -99.99 -9.99
2019/06/14 10:24 EDT    1.27   1.95 -999 -999 -999 -99.9  74.5 1018.9 16.7  1.011 -99.9 -99.99 -9.99
2019/06/14 10:30 EDT    1.21   1.90 -999 -999 -999 -99.9  74.5 1018.9 16.7  1.011 -99.9 -99.99 -9.99
2019/06/14 10:36 EDT    1.14   1.84 -999 -999 -999 -99.9  74.5 1018.9 16.7  1.011 -99.9 -99.99 -9.99
2019/06/14 10:42 EDT    1.08   1.78 -999 -999 -999 -99.9  74.5 1019.1 16.7  1.011 -99.9 -99.99 -9.99
2019/06/14 10:48 EDT    1.01   1.73 -999 -999 -999 -99.9  74.5 1019.2 16.7  1.011 -99.9 -99.99 -9.99
2019/06/14 10:54 EDT    0.95   1.68 -999 -999 -999 -99.9  74.5 1019.3 16.7  1.011 -99.9 -99.99 -9.99
2019/06/14 11:00 EDT    0.88   1.61 -999 -999 -999 -99.9  74.5 1019.3 16.7  1.011 -99.9 -99.99 -9.99
2019/06/14 11:06 EDT    0.82   1.56 -999 -999 -999 -99.9  74.5 1019.3 16.7  1.011 -99.9 -99.99 -9.99
2019/06/14 11:12 EDT    0.76   1.50 -999 -999 -999 -99.9  74.5 1019.3 16.8  1.011 -99.9 -99.99 -9.99
2019/06/14 11:18 EDT    0.69   1.45 -999 -999 -999 -99.9  74.5 1019.4 16.8  1.011 -99.9 -99.99 -9.99
2019/06/14 11:24 EDT    0.63   1.39 -999 -999 -999 -99.9  74.5 1019.4 16.8  1.011 -99.9 -99.99 -9.99
2019/06/14 11:30 EDT    0.57   1.33 -999 -999 -999 -99.9  74.5 1019.6 16.6  1.011 -99.9 -99.99 -9.99
2019/06/14 11:36 EDT    0.52   1.29 -999 -999 -999 -99.9  74.5 1019.6 16.8  1.011 -99.9 -99.99 -9.99
2019/06/14 11:42 EDT    0.46   1.24 -999 -999 -999 -99.9  74.5 1019.6 16.6  1.011 -99.9 -99.99 -9.99
2019/06/14 11:48 EDT    0.41   1.18 -999 -999 -999 -99.9  74.5 1019.5 16.8  1.011 -99.9 -99.99 -9.99
2019/06/14 11:54 EDT    0.35   1.13 -999 -999 -999 -99.9  74.7 1019.6 16.7  1.011 -99.9 -99.99 -9.99
2019/06/14 12:00 EDT    0.31   1.07 -999 -999 -999 -99.9  74.7 1019.7 16.8  1.011 -99.9 -99.99 -9.99
2019/06/14 12:06 EDT    0.26   1.02 -999 -999 -999 -99.9  74.7 1019.7 16.7  1.011 -99.9 -99.99 -9.99
2019/06/14 12:12 EDT    0.21   0.97 -999 -999 -999 -99.9  74.7 1019.7 16.7  1.011 -99.9 -99.99 -9.99
2019/06/14 12:18 EDT    0.17   0.95 -999 -999 -999 -99.9  74.7 1019.6 16.8  1.011 -99.9 -99.99 -9.99
2019/06/14 12:24 EDT    0.13   0.90 -999 -999 -999 -99.9  74.7 1019.7 16.8  1.011 -99.9 -99.99 -9.99
2019/06/14 12:30 EDT    0.09   0.86 -999 -999 -999 -99.9  74.7 1019.6 16.8  1.011 -99.9 -99.99 -9.99
2019/06/14 12:36 EDT    0.06   0.82 -999 -999 -999 -99.9  74.7 1019.7 16.8  1.011 -99.9 -99.99 -9.99
2019/06/14 12:42 EDT    0.03   0.79 -999 -999 -999 -99.9  74.7 1019.9 16.8  1.011 -99.9 -99.99 -9.99
2019/06/14 12:48 EDT    0.00   0.76 -999 -999 -999 -99.9  74.7 1019.9 16.8  1.011 -99.9 -99.99 -9.99
2019/06/14 12:54 EDT   -0.02   0.75 -999 -999 -999 -99.9  74.7 1019.8 16.8  1.011 -99.9 -99.99 -9.99
2019/06/14 13:00 EDT   -0.04   0.72 -999 -999 -999 -99.9  74.7 1019.8 16.8  1.011 -99.9 -99.99 -9.99
2019/06/14 13:06 EDT   -0.06   0.69 -999 -999 -999 -99.9  74.8 1019.8 16.7  1.011 -99.9 -99.99 -9.99
2019/06/14 13:12 EDT   -0.07   0.68 -999 -999 -999 -99.9  74.7 1019.8 16.8  1.011 -99.9 -99.99 -9.99
2019/06/14 13:18 EDT   -0.08   0.67 -999 -999 -999 -99.9  74.8 1019.8 16.7  1.011 -99.9 -99.99 -9.99
2019/06/14 13:24 EDT   -0.09   0.66 -999 -999 -999 -99.9  74.8 1019.8 16.7  1.011 -99.9 -99.99 -9.99
2019/06/14 13:30 EDT   -0.09   0.67 -999 -999 -999 -99.9  75.0 1019.8 16.7  1.011 -99.9 -99.99 -9.99
2019/06/14 13:36 EDT   -0.09   0.66 -999 -999 -999 -99.9  75.0 1019.9 16.6  1.011 -99.9 -99.99 -9.99
2019/06/14 13:42 EDT   -0.09   0.67 -999 -999 -999 -99.9  74.8 1019.9 16.6  1.011 -99.9 -99.99 -9.99
2019/06/14 13:48 EDT   -0.08   0.67 -999 -999 -999 -99.9  75.0 1019.9 16.6  1.011 -99.9 -99.99 -9.99
2019/06/14 13:54 EDT   -0.07   0.68 -999 -999 -999 -99.9  74.8 1019.8 16.6  1.011 -99.9 -99.99 -9.99
2019/06/14 14:00 EDT   -0.05   0.70 -999 -999 -999 -99.9  75.0 1019.8 16.6  1.011 -99.9 -99.99 -9.99
2019/06/14 14:06 EDT   -0.03   0.71 -999 -999 -999 -99.9  75.0 1019.8 16.6  1.011 -99.9 -99.99 -9.99
2019/06/14 14:12 EDT   -0.01   0.75 -999 -999 -999 -99.9  75.0 1019.8 16.6  1.011 -99.9 -99.99 -9.99
2019/06/14 14:18 EDT    0.01   0.77 -999 -999 -999 -99.9  75.0 1019.8 16.4  1.011 -99.9 -99.99 -9.99
2019/06/14 14:24 EDT    0.04   0.79 -999 -999 -999 -99.9  75.2 1019.8 16.4  1.011 -99.9 -99.99 -9.99
2019/06/14 14:30 EDT    0.08   0.82 -999 -999 -999 -99.9  75.2 1019.8 16.1  1.010 -99.9 -99.99 -9.99
2019/06/14 14:36 EDT    0.11   0.85 -999 -999 -999 -99.9  75.2 1019.8 16.4  1.011 -99.9 -99.99 -9.99
2019/06/14 14:42 EDT    0.15   0.89 -999 -999 -999 -99.9  75.4 1019.8 16.3  1.010 -99.9 -99.99 -9.99
2019/06/14 14:48 EDT    0.20   0.91 -999 -999 -999 -99.9  75.2 1019.9 16.3  1.010 -99.9 -99.99 -9.99
2019/06/14 14:54 EDT    0.24   0.97 -999 -999 -999 -99.9  75.2 1019.8 16.4  1.011 -99.9 -99.99 -9.99
2019/06/14 15:00 EDT    0.29   1.00 -999 -999 -999 -99.9  75.2 1019.8 16.4  1.011 -99.9 -99.99 -9.99
2019/06/14 15:06 EDT    0.34   1.04 -999 -999 -999 -99.9  75.2 1019.8 16.4  1.011 -99.9 -99.99 -9.99
2019/06/14 15:12 EDT    0.40   1.09 -999 -999 -999 -99.9  75.2 1019.7 16.4  1.011 -99.9 -99.99 -9.99
2019/06/14 15:18 EDT    0.45   1.15 -999 -999 -999 -99.9  75.2 1019.7 16.4  1.011 -99.9 -99.99 -9.99
2019/06/14 15:24 EDT    0.51   1.20 -999 -999 -999 -99.9  75.2 1019.8 16.4  1.010 -99.9 -99.99 -9.99
2019/06/14 15:30 EDT    0.58   1.25 -999 -999 -999 -99.9  75.2 1019.7 16.4  1.010 -99.9 -99.99 -9.99
2019/06/14 15:36 EDT    0.64   1.32 -999 -999 -999 -99.9  75.2 1019.8 16.4  1.011 -99.9 -99.99 -9.99
2019/06/14 15:42 EDT    0.71   1.39 -999 -999 -999 -99.9  75.2 1019.8 16.4  1.011 -99.9 -99.99 -9.99
2019/06/14 15:48 EDT    0.77   1.47 -999 -999 -999 -99.9  75.4 1019.7 16.3  1.010 -99.9 -99.99 -9.99
2019/06/14 15:54 EDT    0.84   1.55 -999 -999 -999 -99.9  75.4 1019.6 16.3  1.010 -99.9 -99.99 -9.99
2019/06/14 16:00 EDT    0.91   1.65 -999 -999 -999 -99.9  75.4 1019.7 16.2  1.010 -99.9 -99.99 -9.99
2019/06/14 16:06 EDT    0.98   1.71 -999 -999 -999 -99.9  75.4 1019.6 16.2  1.010 -99.9 -99.99 -9.99
2019/06/14 16:12 EDT    1.06   1.79 -999 -999 -999 -99.9  75.4 1019.7 16.2  1.010 -99.9 -99.99 -9.99
2019/06/14 16:18 EDT    1.13   1.85 -999 -999 -999 -99.9  75.4 1019.7 16.1  1.010 -99.9 -99.99 -9.99
2019/06/14 16:24 EDT    1.21   1.93 -999 -999 -999 -99.9  75.4 1019.8 16.1  1.010 -99.9 -99.99 -9.99
2019/06/14 16:30 EDT    1.28   2.00 -999 -999 -999 -99.9  75.4 1019.8 16.2  1.010 -99.9 -99.99 -9.99
2019/06/14 16:36 EDT    1.36   2.07 -999 -999 -999 -99.9  75.4 1019.8 16.1  1.010 -99.9 -99.99 -9.99
2019/06/14 16:42 EDT    1.43   2.09 -999 -999 -999 -99.9  75.4 1019.8 16.2  1.010 -99.9 -99.99 -9.99
2019/06/14 16:48 EDT    1.51   2.18 -999 -999 -999 -99.9  75.4 1019.8 16.1  1.010 -99.9 -99.99 -9.99
2019/06/14 16:54 EDT    1.58   2.24 -999 -999 -999 -99.9  75.4 1019.9 16.1  1.010 -99.9 -99.99 -9.99
2019/06/14 17:00 EDT    1.66   2.30 -999 -999 -999 -99.9  75.4 1019.8 16.1  1.010 -99.9 -99.99 -9.99
2019/06/14 17:06 EDT    1.74   2.37 -999 -999 -999 -99.9  75.4 1019.8 16.1  1.010 -99.9 -99.99 -9.99
2019/06/14 17:12 EDT    1.81   2.42 -999 -999 -999 -99.9  75.4 1019.8 16.1  1.010 -99.9 -99.99 -9.99
2019/06/14 17:18 EDT    1.88   2.49 -999 -999 -999 -99.9  75.4 1019.8 16.1  1.010 -99.9 -99.99 -9.99
2019/06/14 17:24 EDT    1.96   2.55 -999 -999 -999 -99.9  75.4 1019.9 16.1  1.010 -99.9 -99.99 -9.99
2019/06/14 17:30 EDT    2.03   2.61 -999 -999 -999 -99.9  75.6 1019.9 16.0  1.010 -99.9 -99.99 -9.99
2019/06/14 17:36 EDT    2.10   2.64 -999 -999 -999 -99.9  75.6 1019.8 16.0  1.010 -99.9 -99.99 -9.99
2019/06/14 17:42 EDT    2.16   2.71 -999 -999 -999 -99.9  75.6 1019.8 16.1  1.010 -99.9 -99.99 -9.99
2019/06/14 17:48 EDT    2.23   2.77 -999 -999 -999 -99.9  75.4 1019.9 16.2  1.010 -99.9 -99.99 -9.99
2019/06/14 17:54 EDT    2.30   2.82 -999 -999 -999 -99.9  75.4 1019.8 16.2  1.010 -99.9 -99.99 -9.99
2019/06/14 18:00 EDT    2.36   2.89 -999 -999 -999 -99.9  75.6 1019.7 16.0  1.010 -99.9 -99.99 -9.99
2019/06/14 18:06 EDT    2.42   2.96 -999 -999 -999 -99.9  75.4 1019.7 16.1  1.010 -99.9 -99.99 -9.99
2019/06/14 18:12 EDT    2.48   3.01 -999 -999 -999 -99.9  75.6 1019.6 16.0  1.010 -99.9 -99.99 -9.99
2019/06/14 18:18 EDT    2.53   3.05 -999 -999 -999 -99.9  75.6 1019.6 16.0  1.010 -99.9 -99.99 -9.99
2019/06/14 18:24 EDT    2.59   3.10 -999 -999 -999 -99.9  75.6 1019.6 16.0  1.010 -99.9 -99.99 -9.99
2019/06/14 18:30 EDT    2.64   3.15 -999 -999 -999 -99.9  75.6 1019.7 16.1  1.010 -99.9 -99.99 -9.99
2019/06/14 18:36 EDT    2.69   3.17 -999 -999 -999 -99.9  75.6 1019.8 16.1  1.010 -99.9 -99.99 -9.99
2019/06/14 18:42 EDT    2.73   3.21 -999 -999 -999 -99.9  75.4 1019.8 16.2  1.010 -99.9 -99.99 -9.99
2019/06/14 18:48 EDT    2.77   3.25 -999 -999 -999 -99.9  75.4 1019.8 16.2  1.010 -99.9 -99.99 -9.99
2019/06/14 18:54 EDT    2.81   3.27 -999 -999 -999 -99.9  75.4 1019.8 16.3  1.010 -99.9 -99.99 -9.99
2019/06/14 19:00 EDT    2.85   3.31 -999 -999 -999 -99.9  75.4 1019.9 16.3  1.010 -99.9 -99.99 -9.99
2019/06/14 19:06 EDT    2.88   3.31 -999 -999 -999 -99.9  75.4 1020.1 16.2  1.010 -99.9 -99.99 -9.99
2019/06/14 19:12 EDT    2.91   3.33 -999 -999 -999 -99.9  75.4 1020.1 16.1  1.010 -99.9 -99.99 -9.99
2019/06/14 19:18 EDT    2.94   3.28 -999 -999 -999 -99.9  75.4 1020.1 16.2  1.010 -99.9 -99.99 -9.99
2019/06/14 19:24 EDT    2.96   3.33 -999 -999 -999 -99.9  75.4 1020.1 16.1  1.010 -99.9 -99.99 -9.99
2019/06/14 19:30 EDT    2.98   3.36 -999 -999 -999 -99.9  75.4 1020.1 16.2  1.010 -99.9 -99.99 -9.99
2019/06/14 19:36 EDT    2.99   3.36 -999 -999 -999 -99.9  75.4 1020.2 16.3  1.010 -99.9 -99.99 -9.99
2019/06/14 19:42 EDT    3.01   3.32 -999 -999 -999 -99.9  75.4 1020.3 16.2  1.010 -99.9 -99.99 -9.99
2019/06/14 19:48 EDT    3.01   3.37 -999 -999 -999 -99.9  75.4 1020.3 16.3  1.010 -99.9 -99.99 -9.99
2019/06/14 19:54 EDT    3.02   3.32 -999 -999 -999 -99.9  75.4 1020.3 16.3  1.010 -99.9 -99.99 -9.99
2019/06/14 20:00 EDT    3.02   3.36 -999 -999 -999 -99.9  75.4 1020.4 16.3  1.010 -99.9 -99.99 -9.99
2019/06/14 20:06 EDT    3.02   3.35 -999 -999 -999 -99.9  75.4 1020.6 16.2  1.010 -99.9 -99.99 -9.99
2019/06/14 20:12 EDT    3.01   3.33 -999 -999 -999 -99.9  75.4 1020.4 16.1  1.010 -99.9 -99.99 -9.99
2019/06/14 20:18 EDT    3.00   3.34 -999 -999 -999 -99.9  75.4 1020.5 16.1  1.010 -99.9 -99.99 -9.99
2019/06/14 20:24 EDT    2.99   3.31 -999 -999 -999 -99.9  75.4 1020.5 16.1  1.010 -99.9 -99.99 -9.99
2019/06/14 20:30 EDT    2.97   3.30 -999 -999 -999 -99.9  75.4 1020.5 16.2  1.010 -99.9 -99.99 -9.99
2019/06/14 20:36 EDT    2.95   3.28 -999 -999 -999 -99.9  75.4 1020.6 16.3  1.010 -99.9 -99.99 -9.99
2019/06/14 20:42 EDT    2.93   3.26 -999 -999 -999 -99.9  75.2 1020.7 16.5  1.011 -99.9 -99.99 -9.99
2019/06/14 20:48 EDT    2.90   3.21 -999 -999 -999 -99.9  75.2 1020.8 16.4  1.011 -99.9 -99.99 -9.99
2019/06/14 20:54 EDT    2.87   3.18 -999 -999 -999 -99.9  75.2 1020.8 16.4  1.011 -99.9 -99.99 -9.99
2019/06/14 21:00 EDT    2.84   3.13 -999 -999 -999 -99.9  75.2 1020.9 16.3  1.010 -99.9 -99.99 -9.99
2019/06/14 21:06 EDT    2.80   3.10 -999 -999 -999 -99.9  75.4 1020.9 16.2  1.010 -99.9 -99.99 -9.99
2019/06/14 21:12 EDT    2.76   3.06 -999 -999 -999 -99.9  75.4 1021.0 16.3  1.010 -99.9 -99.99 -9.99
2019/06/14 21:18 EDT    2.72   3.04 -999 -999 -999 -99.9  75.2 1021.1 16.4  1.011 -99.9 -99.99 -9.99
2019/06/14 21:24 EDT    2.67   2.98 -999 -999 -999 -99.9  75.2 1021.1 16.5  1.011 -99.9 -99.99 -9.99
2019/06/14 21:30 EDT    2.62   2.96 -999 -999 -999 -99.9  75.0 1021.2 16.6  1.011 -99.9 -99.99 -9.99
2019/06/14 21:36 EDT    2.57   2.91 -999 -999 -999 -99.9  75.2 1021.2 16.5  1.011 -99.9 -99.99 -9.99
2019/06/14 21:42 EDT    2.52   2.86 -999 -999 -999 -99.9  75.2 1021.3 16.4  1.011 -99.9 -99.99 -9.99
2019/06/14 21:48 EDT    2.46   2.82 -999 -999 -999 -99.9  75.2 1021.4 16.6  1.011 -99.9 -99.99 -9.99
2019/06/14 21:54 EDT    2.40   2.77 -999 -999 -999 -99.9  75.0 1021.4 16.7  1.011 -99.9 -99.99 -9.99
2019/06/14 22:00 EDT    2.34   2.71 -999 -999 -999 -99.9  75.0 1021.5 16.7  1.011 -99.9 -99.99 -9.99
2019/06/14 22:06 EDT    2.28   2.66 -999 -999 -999 -99.9  75.0 1021.6 16.7  1.011 -99.9 -99.99 -9.99
2019/06/14 22:12 EDT    2.21   2.61 -999 -999 -999 -99.9  75.0 1021.8 16.7  1.011 -99.9 -99.99 -9.99
2019/06/14 22:18 EDT    2.14   2.53 -999 -999 -999 -99.9  75.2 1021.9 16.6  1.011 -99.9 -99.99 -9.99
2019/06/14 22:24 EDT    2.07   2.48 -999 -999 -999 -99.9  75.0 1021.9 16.6  1.011 -99.9 -99.99 -9.99
2019/06/14 22:30 EDT    2.00   2.41 -999 -999 -999 -99.9  75.2 1021.9 16.5  1.011 -99.9 -99.99 -9.99
2019/06/14 22:36 EDT    1.93   2.33 -999 -999 -999 -99.9  75.2 1022.0 16.5  1.011 -99.9 -99.99 -9.99
2019/06/14 22:42 EDT    1.86   2.23 -999 -999 -999 -99.9  75.2 1022.0 16.5  1.011 -99.9 -99.99 -9.99
2019/06/14 22:48 EDT    1.78   2.18 -999 -999 -999 -99.9  75.2 1022.1 16.5  1.011 -99.9 -99.99 -9.99
2019/06/14 22:54 EDT    1.71   2.10 -999 -999 -999 -99.9  75.2 1022.0 16.4  1.011 -99.9 -99.99 -9.99
2019/06/14 23:00 EDT    1.63   2.01 -999 -999 -999 -99.9  75.2 1022.0 16.5  1.011 -99.9 -99.99 -9.99
2019/06/14 23:06 EDT    1.56   1.93 -999 -999 -999 -99.9  75.2 1022.0 16.4  1.011 -99.9 -99.99 -9.99
2019/06/14 23:12 EDT    1.48   1.85 -999 -999 -999 -99.9  75.2 1022.1 16.3  1.010 -99.9 -99.99 -9.99
2019/06/14 23:18 EDT    1.41   1.77 -999 -999 -999 -99.9  75.2 1022.1 16.4  1.010 -99.9 -99.99 -9.99
2019/06/14 23:24 EDT    1.33   1.68 -999 -999 -999 -99.9 -99.9 -999.9 -9.9 -9.999 -99.9 -99.99 -9.99
2019/06/14 23:30 EDT    1.25   1.60 -999 -999 -999 -99.9  75.2 1022.2 16.4  1.011 -99.9 -99.99 -9.99
2019/06/14 23:36 EDT    1.18   1.51 -999 -999 -999 -99.9  75.0 1022.1 16.4  1.011 -99.9 -99.99 -9.99
2019/06/14 23:42 EDT    1.10   1.44 -999 -999 -999 -99.9  75.0 1022.2 16.5  1.011 -99.9 -99.99 -9.99
2019/06/14 23:48 EDT    1.03   1.36 -999 -999 -999 -99.9  75.0 1022.1 16.4  1.011 -99.9 -99.99 -9.99
2019/06/14 23:54 EDT    0.96   1.28 -999 -999 -999 -99.9  75.0 1022.2 16.3  1.010 -99.9 -99.99 -9.99
2019/06/15 00:00 EDT    0.89   1.20 -999 -999 -999 -99.9  75.0 1022.0 16.3  1.010 -99.9 -99.99 -9.99
2019/06/15 00:06 EDT    0.82   1.13 -999 -999 -999 -99.9  75.0 1022.2 16.2  1.010 -99.9 -99.99 -9.99
2019/06/15 00:12 EDT    0.75   1.05 -999 -999 -999 -99.9  74.8 1022.2 16.2  1.010 -99.9 -99.99 -9.99
2019/06/15 00:18 EDT    0.68   0.98 -999 -999 -999 -99.9  74.8 1022.2 16.3  1.011 -99.9 -99.99 -9.99
2019/06/15 00:24 EDT    0.62   0.90 -999 -999 -999 -99.9  74.8 1022.2 16.3  1.010 -99.9 -99.99 -9.99
2019/06/15 00:30 EDT    0.56   0.84 -999 -999 -999 -99.9  74.8 1022.1 16.2  1.010 -99.9 -99.99 -9.99
2019/06/15 00:36 EDT    0.50   0.75 -999 -999 -999 -99.9  74.8 1022.0 16.3  1.011 -99.9 -99.99 -9.99
2019/06/15 00:42 EDT    0.44   0.70 -999 -999 -999 -99.9  74.8 1022.0 16.2  1.010 -99.9 -99.99 -9.99
2019/06/15 00:48 EDT    0.38   0.63 -999 -999 -999 -99.9  74.8 1022.1 16.2  1.010 -99.9 -99.99 -9.99
2019/06/15 00:54 EDT    0.33   0.57 -999 -999 -999 -99.9  74.8 1022.1 16.3  1.011 -99.9 -99.99 -9.99
2019/06/15 01:00 EDT    0.28   0.52 -999 -999 -999 -99.9  74.8 1022.2 16.3  1.010 -99.9 -99.99 -9.99
2019/06/15 01:06 EDT    0.23   0.47 -999 -999 -999 -99.9  74.8 1022.1 16.3  1.011 -99.9 -99.99 -9.99
2019/06/15 01:12 EDT    0.19   0.42 -999 -999 -999 -99.9  74.8 1022.1 16.4  1.011 -99.9 -99.99 -9.99
2019/06/15 01:18 EDT    0.15   0.37 -999 -999 -999 -99.9  74.8 1022.1 16.4  1.011 -99.9 -99.99 -9.99
2019/06/15 01:24 EDT    0.11   0.33 -999 -999 -999 -99.9  74.8 1022.1 16.4  1.011 -99.9 -99.99 -9.99
2019/06/15 01:30 EDT    0.08   0.29 -999 -999 -999 -99.9  74.8 1022.0 16.4  1.011 -99.9 -99.99 -9.99
2019/06/15 01:36 EDT    0.05   0.25 -999 -999 -999 -99.9  74.8 1021.9 16.4  1.011 -99.9 -99.99 -9.99
2019/06/15 01:42 EDT    0.02   0.22 -999 -999 -999 -99.9  74.8 1021.9 16.4  1.011 -99.9 -99.99 -9.99
2019/06/15 01:48 EDT   -0.00   0.20 -999 -999 -999 -99.9  74.8 1021.8 16.4  1.011 -99.9 -99.99 -9.99
2019/06/15 01:54 EDT   -0.02   0.17 -999 -999 -999 -99.9  74.8 1021.9 16.4  1.011 -99.9 -99.99 -9.99
2019/06/15 02:00 EDT   -0.04   0.14 -999 -999 -999 -99.9  74.8 1021.9 16.4  1.011 -99.9 -99.99 -9.99
2019/06/15 02:06 EDT   -0.05   0.12 -999 -999 -999 -99.9  74.8 1022.0 16.4  1.011 -99.9 -99.99 -9.99
2019/06/15 02:12 EDT   -0.06   0.10 -999 -999 -999 -99.9  74.8 1021.9 16.4  1.011 -99.9 -99.99 -9.99
2019/06/15 02:18 EDT   -0.07   0.09 -999 -999 -999 -99.9  74.8 1021.9 16.4  1.011 -99.9 -99.99 -9.99
2019/06/15 02:24 EDT   -0.07   0.08 -999 -999 -999 -99.9  74.8 1021.8 16.4  1.011 -99.9 -99.99 -9.99
2019/06/15 02:30 EDT   -0.06   0.07 -999 -999 -999 -99.9  74.8 1021.8 16.4  1.011 -99.9 -99.99 -9.99
2019/06/15 02:36 EDT   -0.06   0.07 -999 -999 -999 -99.9  75.0 1021.7 16.4  1.011 -99.9 -99.99 -9.99
2019/06/15 02:42 EDT   -0.05   0.08 -999 -999 -999 -99.9  74.8 1021.6 16.5  1.011 -99.9 -99.99 -9.99
2019/06/15 02:48 EDT   -0.04   0.10 -999 -999 -999 -99.9  74.8 1021.6 16.5  1.011 -99.9 -99.99 -9.99
2019/06/15 02:54 EDT   -0.02   0.11 -999 -999 -999 -99.9  74.8 1021.5 16.5  1.011 -99.9 -99.99 -9.99
2019/06/15 03:00 EDT    0.00   0.14 -999 -999 -999 -99.9  74.8 1021.6 16.5  1.011 -99.9 -99.99 -9.99
2019/06/15 03:06 EDT    0.03   0.15 -999 -999 -999 -99.9  74.8 1021.5 16.6  1.011 -99.9 -99.99 -9.99
2019/06/15 03:12 EDT    0.05   0.18 -999 -999 -999 -99.9  74.8 1021.5 16.6  1.011 -99.9 -99.99 -9.99
2019/06/15 03:18 EDT    0.08   0.21 -999 -999 -999 -99.9  74.8 1021.6 16.6  1.011 -99.9 -99.99 -9.99
2019/06/15 03:24 EDT    0.12   0.22 -999 -999 -999 -99.9  74.8 1021.5 16.5  1.011 -99.9 -99.99 -9.99
2019/06/15 03:30 EDT    0.15   0.26 -999 -999 -999 -99.9  74.8 1021.7 16.5  1.011 -99.9 -99.99 -9.99
2019/06/15 03:36 EDT    0.19   0.29 -999 -999 -999 -99.9  74.8 1021.7 16.6  1.011 -99.9 -99.99 -9.99
2019/06/15 03:42 EDT    0.23   0.33 -999 -999 -999 -99.9  74.8 1021.7 16.5  1.011 -99.9 -99.99 -9.99
2019/06/15 03:48 EDT    0.28   0.36 -999 -999 -999 -99.9  74.8 1021.8 16.5  1.011 -99.9 -99.99 -9.99
2019/06/15 03:54 EDT    0.32   0.40 -999 -999 -999 -99.9  74.8 1021.8 16.5  1.011 -99.9 -99.99 -9.99
2019/06/15 04:00 EDT    0.37   0.44 -999 -999 -999 -99.9  74.8 1021.8 16.5  1.011 -99.9 -99.99 -9.99
2019/06/15 04:06 EDT    0.42   0.49 -999 -999 -999 -99.9  74.8 1021.7 16.5  1.011 -99.9 -99.99 -9.99
2019/06/15 04:12 EDT    0.48   0.54 -999 -999 -999 -99.9  74.8 1021.9 16.4  1.011 -99.9 -99.99 -9.99
2019/06/15 04:18 EDT    0.53   0.60 -999 -999 -999 -99.9  74.8 1021.9 16.4  1.011 -99.9 -99.99 -9.99
2019/06/15 04:24 EDT    0.59   0.65 -999 -999 -999 -99.9  74.7 1021.9 16.4  1.011 -99.9 -99.99 -9.99
2019/06/15 04:30 EDT    0.65   0.71 -999 -999 -999 -99.9  74.5 1022.1 15.9  1.010 -99.9 -99.99 -9.99
2019/06/15 04:36 EDT    0.71   0.76 -999 -999 -999 -99.9  74.3 1022.1 15.5  1.010 -99.9 -99.99 -9.99
2019/06/15 04:42 EDT    0.77   0.82 -999 -999 -999 -99.9  74.3 1022.1 15.6  1.010 -99.9 -99.99 -9.99
2019/06/15 04:48 EDT    0.83   0.89 -999 -999 -999 -99.9  74.3 1022.2 15.6  1.010 -99.9 -99.99 -9.99
2019/06/15 04:54 EDT    0.89   0.96 -999 -999 -999 -99.9  74.5 1022.2 15.8  1.010 -99.9 -99.99 -9.99
2019/06/15 05:00 EDT    0.96   1.00 -999 -999 -999 -99.9  74.5 1022.3 15.8  1.010 -99.9 -99.99 -9.99
2019/06/15 05:06 EDT    1.02   1.06 -999 -999 -999 -99.9  74.5 1022.3 15.7  1.010 -99.9 -99.99 -9.99
2019/06/15 05:12 EDT    1.08   1.12 -999 -999 -999 -99.9  74.5 1022.4 15.7  1.010 -99.9 -99.99 -9.99
2019/06/15 05:18 EDT    1.15   1.18 -999 -999 -999 -99.9  74.5 1022.5 15.7  1.010 -99.9 -99.99 -9.99
2019/06/15 05:24 EDT    1.21   1.24 -999 -999 -999 -99.9  74.5 1022.5 15.6  1.010 -99.9 -99.99 -9.99
2019/06/15 05:30 EDT    1.28   1.32 -999 -999 -999 -99.9  74.5 1022.5 15.6  1.010 -99.9 -99.99 -9.99
2019/06/15 05:36 EDT    1.34   1.38 -999 -999 -999 -99.9  74.5 1022.5 15.6  1.010 -99.9 -99.99 -9.99
2019/06/15 05:42 EDT    1.40   1.45 -999 -999 -999 -99.9  74.5 1022.5 15.5  1.010 -99.9 -99.99 -9.99
2019/06/15 05:48 EDT    1.47   1.46 -999 -999 -999 -99.9  74.3 1022.6 15.5  1.010 -99.9 -99.99 -9.99
2019/06/15 05:54 EDT    1.53   1.58 -999 -999 -999 -99.9  74.3 1022.5 15.6  1.010 -99.9 -99.99 -9.99
2019/06/15 06:00 EDT    1.59   1.61 -999 -999 -999 -99.9  74.3 1022.5 15.5  1.010 -99.9 -99.99 -9.99
2019/06/15 06:06 EDT    1.65   1.71 -999 -999 -999 -99.9  74.3 1022.7 15.4  1.010 -99.9 -99.99 -9.99
2019/06/15 06:12 EDT    1.71   1.74 -999 -999 -999 -99.9  74.3 1022.7 15.4  1.010 -99.9 -99.99 -9.99
2019/06/15 06:18 EDT    1.76   1.82 -999 -999 -999 -99.9  74.3 1022.8 15.5  1.010 -99.9 -99.99 -9.99
2019/06/15 06:24 EDT    1.82   1.88 -999 -999 -999 -99.9  74.3 1022.8 15.4  1.010 -99.9 -99.99 -9.99
2019/06/15 06:30 EDT    1.87   1.92 -999 -999 -999 -99.9  74.3 1022.9 15.4  1.010 -99.9 -99.99 -9.99
2019/06/15 06:36 EDT    1.92   2.01 -999 -999 -999 -99.9  74.1 1023.0 15.4  1.010 -99.9 -99.99 -9.99
2019/06/15 06:42 EDT    1.97   2.05 -999 -999 -999 -99.9  74.1 1023.0 15.5  1.010 -99.9 -99.99 -9.99
2019/06/15 06:48 EDT    2.02   2.10 -999 -999 -999 -99.9  74.3 1022.9 15.5  1.010 -99.9 -99.99 -9.99
2019/06/15 06:54 EDT    2.06   2.15 -999 -999 -999 -99.9  74.1 1022.9 15.5  1.010 -99.9 -99.99 -9.99
2019/06/15 07:00 EDT    2.10   2.19 -999 -999 -999 -99.9  74.3 1022.8 15.6  1.010 -99.9 -99.99 -9.99
2019/06/15 07:06 EDT    2.14   2.22 -999 -999 -999 -99.9  74.1 1022.8 15.5  1.010 -99.9 -99.99 -9.99
2019/06/15 07:12 EDT    2.18   2.27 -999 -999 -999 -99.9  74.1 1022.9 15.5  1.010 -99.9 -99.99 -9.99
2019/06/15 07:18 EDT    2.22   2.30 -999 -999 -999 -99.9  74.3 1023.0 15.6  1.010 -99.9 -99.99 -9.99
2019/06/15 07:24 EDT    2.25   2.34 -999 -999 -999 -99.9  74.3 1023.1 15.6  1.010 -99.9 -99.99 -9.99
2019/06/15 07:30 EDT    2.28   2.33 -999 -999 -999 -99.9  74.3 1023.2 15.5  1.010 -99.9 -99.99 -9.99
2019/06/15 07:36 EDT    2.30   2.39 -999 -999 -999 -99.9  74.3 1023.3 15.6  1.010 -99.9 -99.99 -9.99
2019/06/15 07:42 EDT    2.32   2.39 -999 -999 -999 -99.9  74.3 1023.4 15.6  1.010 -99.9 -99.99 -9.99
2019/06/15 07:48 EDT    2.34   2.43 -999 -999 -999 -99.9  74.3 1023.4 15.5  1.010 -99.9 -99.99 -9.99
2019/06/15 07:54 EDT    2.36   2.43 -999 -999 -999 -99.9  74.3 1023.5 15.8  1.010 -99.9 -99.99 -9.99
2019/06/15 08:00 EDT    2.37   2.45 -999 -999 -999 -99.9  74.5 1023.4 15.8  1.010 -99.9 -99.99 -9.99
2019/06/15 08:06 EDT    2.38   2.43 -999 -999 -999 -99.9  74.3 1023.5 15.6  1.010 -99.9 -99.99 -9.99
2019/06/15 08:12 EDT    2.39   2.50 -999 -999 -999 -99.9  74.5 1023.6 15.8  1.010 -99.9 -99.99 -9.99
2019/06/15 08:18 EDT    2.40   2.48 -999 -999 -999 -99.9  74.3 1023.6 15.7  1.010 -99.9 -99.99 -9.99
2019/06/15 08:24 EDT    2.40   2.50 -999 -999 -999 -99.9  74.3 1023.7 15.6  1.010 -99.9 -99.99 -9.99
2019/06/15 08:30 EDT    2.39   2.48 -999 -999 -999 -99.9  74.3 1023.7 15.7  1.010 -99.9 -99.99 -9.99
2019/06/15 08:36 EDT    2.39   2.50 -999 -999 -999 -99.9  74.5 1023.7 15.7  1.010 -99.9 -99.99 -9.99
2019/06/15 08:42 EDT    2.38   2.47 -999 -999 -999 -99.9  74.5 1023.7 15.8  1.010 -99.9 -99.99 -9.99
2019/06/15 08:48 EDT    2.37   2.48 -999 -999 -999 -99.9  74.5 1023.6 15.9  1.010 -99.9 -99.99 -9.99
2019/06/15 08:54 EDT    2.35   2.45 -999 -999 -999 -99.9  74.3 1023.6 15.7  1.010 -99.9 -99.99 -9.99
2019/06/15 09:00 EDT    2.33   2.45 -999 -999 -999 -99.9  74.3 1023.7 15.6  1.010 -99.9 -99.99 -9.99
2019/06/15 09:06 EDT    2.31   2.42 -999 -999 -999 -99.9  74.3 1023.8 15.4  1.010 -99.9 -99.99 -9.99
2019/06/15 09:12 EDT    2.29   2.41 -999 -999 -999 -99.9  74.3 1023.8 15.6  1.010 -99.9 -99.99 -9.99
2019/06/15 09:18 EDT    2.26   2.39 -999 -999 -999 -99.9  74.3 1023.8 15.7  1.010 -99.9 -99.99 -9.99
2019/06/15 09:24 EDT    2.23   2.35 -999 -999 -999 -99.9  74.3 1023.8 15.7  1.010 -99.9 -99.99 -9.99
2019/06/15 09:30 EDT    2.19   2.31 -999 -999 -999 -99.9  74.5 1023.7 16.0  1.010 -99.9 -99.99 -9.99
2019/06/15 09:36 EDT    2.16   2.28 -999 -999 -999 -99.9  74.5 1023.8 16.2  1.010 -99.9 -99.99 -9.99
2019/06/15 09:42 EDT    2.12   2.23 -999 -999 -999 -99.9  74.7 1023.8 16.3  1.011 -99.9 -99.99 -9.99
2019/06/15 09:48 EDT    2.08   2.19 -999 -999 -999 -99.9  74.7 1023.8 16.4  1.011 -99.9 -99.99 -9.99
2019/06/15 09:54 EDT    2.03   2.15 -999 -999 -999 -99.9  74.7 1023.9 16.3  1.011 -99.9 -99.99 -9.99
2019/06/15 10:00 EDT    1.99   2.09 -999 -999 -999 -99.9  74.7 1023.9 16.4  1.011 -99.9 -99.99 -9.99
2019/06/15 10:06 EDT    1.94   2.05 -999 -999 -999 -99.9  74.5 1023.8 16.3  1.011 -99.9 -99.99 -9.99
2019/06/15 10:12 EDT    1.89   2.01 -999 -999 -999 -99.9  74.5 1023.7 16.1  1.010 -99.9 -99.99 -9.99
2019/06/15 10:18 EDT    1.83   1.96 -999 -999 -999 -99.9  74.5 1023.7 16.1  1.010 -99.9 -99.99 -9.99
2019/06/15 10:24 EDT    1.78   1.90 -999 -999 -999 -99.9  74.5 1023.6 16.2  1.010 -99.9 -99.99 -9.99
2019/06/15 10:30 EDT    1.72   1.85 -999 -999 -999 -99.9  74.7 1023.6 16.2  1.010 -99.9 -99.99 -9.99
2019/06/15 10:36 EDT    1.67   1.80 -999 -999 -999 -99.9  74.7 1023.5 16.2  1.010 -99.9 -99.99 -9.99
2019/06/15 10:42 EDT    1.61   1.72 -999 -999 -999 -99.9  74.7 1023.4 16.4  1.011 -99.9 -99.99 -9.99
2019/06/15 10:48 EDT    1.54   1.69 -999 -999 -999 -99.9  74.5 1023.3 16.2  1.010 -99.9 -99.99 -9.99
2019/06/15 10:54 EDT    1.48   1.64 -999 -999 -999 -99.9  74.5 1023.2 16.0  1.010 -99.9 -99.99 -9.99
2019/06/15 11:00 EDT    1.42   1.57 -999 -999 -999 -99.9  74.5 1023.3 16.0  1.010 -99.9 -99.99 -9.99
2019/06/15 11:06 EDT    1.36   1.50 -999 -999 -999 -99.9  74.7 1023.2 16.7  1.011 -99.9 -99.99 -9.99
2019/06/15 11:12 EDT    1.29   1.41 -999 -999 -999 -99.9  74.7 1023.2 16.9  1.011 -99.9 -99.99 -9.99
2019/06/15 11:18 EDT    1.23   1.36 -999 -999 -999 -99.9  74.7 1023.1 16.8  1.011 -99.9 -99.99 -9.99
2019/06/15 11:24 EDT    1.16   1.28 -999 -999 -999 -99.9  74.7 1023.0 17.0  1.011 -99.9 -99.99 -9.99
2019/06/15 11:30 EDT    1.10   1.22 -999 -999 -999 -99.9  74.5 1023.0 17.0  1.011 -99.9 -99.99 -9.99
2019/06/15 11:36 EDT    1.03   1.16 -999 -999 -999 -99.9  74.7 1022.9 17.0  1.011 -99.9 -99.99 -9.99
2019/06/15 11:42 EDT    0.97   1.10 -999 -999 -999 -99.9  74.5 1022.9 17.0  1.011 -99.9 -99.99 -9.99
2019/06/15 11:48 EDT    0.90   1.03 -999 -999 -999 -99.9  74.5 1022.9 17.1  1.011 -99.9 -99.99 -9.99
2019/06/15 11:54 EDT    0.84   0.96 -999 -999 -999 -99.9  74.5 1022.8 17.2  1.011 -99.9 -99.99 -9.99
2019/06/15 12:00 EDT    0.77   0.88 -999 -999 -999 -99.9  74.5 1022.7 17.2  1.011 -99.9 -99.99 -9.99
2019/06/15 12:06 EDT    0.71   0.82 -999 -999 -999 -99.9  74.5 1022.7 17.2  1.011 -99.9 -99.99 -9.99
2019/06/15 12:12 EDT    0.65   0.75 -999 -999 -999 -99.9  74.5 1022.7 17.2  1.011 -99.9 -99.99 -9.99
2019/06/15 12:18 EDT    0.59   0.69 -999 -999 -999 -99.9  74.5 1022.6 17.3  1.011 -99.9 -99.99 -9.99
2019/06/15 12:24 EDT    0.53   0.63 -999 -999 -999 -99.9  74.5 1022.6 16.9  1.011 -99.9 -99.99 -9.99
2019/06/15 12:30 EDT    0.48   0.57 -999 -999 -999 -99.9  74.5 1022.5 16.6  1.011 -99.9 -99.99 -9.99
2019/06/15 12:36 EDT    0.42   0.51 -999 -999 -999 -99.9  74.7 1022.4 16.5  1.011 -99.9 -99.99 -9.99
2019/06/15 12:42 EDT    0.37   0.45 -999 -999 -999 -99.9  74.5 1022.3 16.6  1.011 -99.9 -99.99 -9.99
2019/06/15 12:48 EDT    0.32   0.40 -999 -999 -999 -99.9  74.5 1022.3 16.6  1.011 -99.9 -99.99 -9.99
2019/06/15 12:54 EDT    0.27   0.35 -999 -999 -999 -99.9  74.7 1022.2 16.7  1.011 -99.9 -99.99 -9.99
2019/06/15 13:00 EDT    0.22   0.31 -999 -999 -999 -99.9  74.7 1022.1 16.7  1.011 -99.9 -99.99 -9.99
2019/06/15 13:06 EDT    0.18   0.27 -999 -999 -999 -99.9  74.7 1022.0 16.6  1.011 -99.9 -99.99 -9.99
2019/06/15 13:12 EDT    0.14   0.24 -999 -999 -999 -99.9  74.7 1021.9 16.7  1.011 -99.9 -99.99 -9.99
2019/06/15 13:18 EDT    0.10   0.19 -999 -999 -999 -99.9  74.7 1021.9 16.7  1.011 -99.9 -99.99 -9.99
2019/06/15 13:24 EDT    0.07   0.16 -999 -999 -999 -99.9  74.7 1021.9 16.6  1.011 -99.9 -99.99 -9.99
2019/06/15 13:30 EDT    0.03   0.13 -999 -999 -999 -99.9  74.7 1021.8 16.5  1.011 -99.9 -99.99 -9.99
2019/06/15 13:36 EDT    0.01   0.10 -999 -999 -999 -99.9  74.8 1021.8 16.4  1.011 -99.9 -99.99 -9.99
2019/06/15 13:42 EDT   -0.02   0.08 -999 -999 -999 -99.9  74.8 1021.7 16.3  1.011 -99.9 -99.99 -9.99
2019/06/15 13:48 EDT   -0.04   0.07 -999 -999 -999 -99.9  74.8 1021.6 16.4  1.011 -99.9 -99.99 -9.99
2019/06/15 13:54 EDT   -0.06   0.05 -999 -999 -999 -99.9  75.0 1021.5 16.3  1.010 -99.9 -99.99 -9.99
2019/06/15 14:00 EDT   -0.07   0.04 -999 -999 -999 -99.9  75.2 1021.3 16.2  1.010 -99.9 -99.99 -9.99
2019/06/15 14:06 EDT   -0.09   0.02 -999 -999 -999 -99.9  75.4 1021.1 16.1  1.010 -99.9 -99.99 -9.99
2019/06/15 14:12 EDT   -0.09   0.00 -999 -999 -999 -99.9  75.4 1021.0 16.1  1.010 -99.9 -99.99 -9.99
2019/06/15 14:18 EDT   -0.10  -0.00 -999 -999 -999 -99.9  75.4 1020.9 16.2  1.010 -99.9 -99.99 -9.99
2019/06/15 14:24 EDT   -0.10   0.00 -999 -999 -999 -99.9  75.4 1020.7 16.1  1.010 -99.9 -99.99 -9.99
2019/06/15 14:30 EDT   -0.09   0.00 -999 -999 -999 -99.9  75.2 1020.7 16.2  1.010 -99.9 -99.99 -9.99
2019/06/15 14:36 EDT   -0.09   0.01 -999 -999 -999 -99.9  75.4 1020.5 16.1  1.010 -99.9 -99.99 -9.99
2019/06/15 14:42 EDT   -0.08   0.01 -999 -999 -999 -99.9  75.6 1020.5 16.1  1.010 -99.9 -99.99 -9.99
2019/06/15 14:48 EDT   -0.06   0.01 -999 -999 -999 -99.9  75.4 1020.4 16.1  1.010 -99.9 -99.99 -9.99
2019/06/15 14:54 EDT   -0.04   0.04 -999 -999 -999 -99.9  75.4 1020.3 16.1  1.010 -99.9 -99.99 -9.99
2019/06/15 15:00 EDT   -0.02   0.07 -999 -999 -999 -99.9  75.6 1020.1 16.1  1.010 -99.9 -99.99 -9.99
2019/06/15 15:06 EDT    0.01   0.08 -999 -999 -999 -99.9  75.4 1020.1 16.2  1.010 -99.9 -99.99 -9.99
2019/06/15 15:12 EDT    0.04   0.12 -999 -999 -999 -99.9  75.4 1020.0 16.1  1.010 -99.9 -99.99 -9.99
2019/06/15 15:18 EDT    0.07   0.14 -999 -999 -999 -99.9  75.4 1019.8 16.1  1.010 -99.9 -99.99 -9.99
2019/06/15 15:24 EDT    0.10   0.18 -999 -999 -999 -99.9  75.4 1019.7 16.1  1.010 -99.9 -99.99 -9.99
2019/06/15 15:30 EDT    0.14   0.22 -999 -999 -999 -99.9  75.4 1019.6 16.1  1.010 -99.9 -99.99 -9.99
2019/06/15 15:36 EDT    0.19   0.25 -999 -999 -999 -99.9  75.6 1019.6 16.1  1.010 -99.9 -99.99 -9.99
2019/06/15 15:42 EDT    0.23   0.30 -999 -999 -999 -99.9  75.6 1019.5 16.1  1.010 -99.9 -99.99 -9.99
2019/06/15 15:48 EDT    0.28   0.35 -999 -999 -999 -99.9  75.6 1019.4 15.9  1.010 -99.9 -99.99 -9.99
2019/06/15 15:54 EDT    0.33   0.40 -999 -999 -999 -99.9  75.7 1019.4 15.5  1.010 -99.9 -99.99 -9.99
2019/06/15 16:00 EDT    0.39   0.46 -999 -999 -999 -99.9  75.7 1019.4 15.6  1.010 -99.9 -99.99 -9.99
2019/06/15 16:06 EDT    0.44   0.51 -999 -999 -999 -99.9  75.6 1019.3 15.7  1.010 -99.9 -99.99 -9.99
2019/06/15 16:12 EDT    0.50   0.56 -999 -999 -999 -99.9  75.6 1019.4 15.7  1.010 -99.9 -99.99 -9.99
2019/06/15 16:18 EDT    0.56   0.65 -999 -999 -999 -99.9  75.7 1019.4 15.4  1.010 -99.9 -99.99 -9.99
2019/06/15 16:24 EDT    0.63   0.62 -999 -999 -999 -99.9  75.7 1019.4 15.3  1.010 -99.9 -99.99 -9.99
2019/06/15 16:30 EDT    0.69   0.73 -999 -999 -999 -99.9  75.7 1019.4 15.2  1.010 -99.9 -99.99 -9.99
2019/06/15 16:36 EDT    0.76   0.77 -999 -999 -999 -99.9  75.7 1019.5 15.0  1.009 -99.9 -99.99 -9.99
2019/06/15 16:42 EDT    0.83   0.88 -999 -999 -999 -99.9  75.7 1019.4 15.1  1.009 -99.9 -99.99 -9.99
2019/06/15 16:48 EDT    0.90   0.93 -999 -999 -999 -99.9  75.7 1019.3 15.0  1.009 -99.9 -99.99 -9.99
2019/06/15 16:54 EDT    0.97   1.02 -999 -999 -999 -99.9  75.7 1019.2 15.1  1.009 -99.9 -99.99 -9.99
2019/06/15 17:00 EDT    1.05   1.08 -999 -999 -999 -99.9  75.7 1019.2 15.1  1.009 -99.9 -99.99 -9.99
2019/06/15 17:06 EDT    1.12   1.17 -999 -999 -999 -99.9  75.7 1019.1 15.1  1.009 -99.9 -99.99 -9.99
2019/06/15 17:12 EDT    1.20   1.25 -999 -999 -999 -99.9  75.7 1019.1 15.1  1.009 -99.9 -99.99 -9.99
2019/06/15 17:18 EDT    1.27   1.31 -999 -999 -999 -99.9  75.7 1019.2 15.1  1.009 -99.9 -99.99 -9.99
2019/06/15 17:24 EDT    1.35   1.41 -999 -999 -999 -99.9  75.7 1019.1 15.1  1.009 -99.9 -99.99 -9.99
2019/06/15 17:30 EDT    1.43   1.48 -999 -999 -999 -99.9  75.7 1019.1 15.0  1.009 -99.9 -99.99 -9.99
2019/06/15 17:36 EDT    1.50   1.56 -999 -999 -999 -99.9  75.7 1019.3 15.0  1.009 -99.9 -99.99 -9.99
2019/06/15 17:42 EDT    1.58   1.65 -999 -999 -999 -99.9  75.7 1019.3 15.0  1.009 -99.9 -99.99 -9.99
2019/06/15 17:48 EDT    1.66   1.74 -999 -999 -999 -99.9  75.7 1019.3 15.1  1.009 -99.9 -99.99 -9.99
2019/06/15 17:54 EDT    1.73   1.82 -999 -999 -999 -99.9  75.7 1019.2 15.1  1.009 -99.9 -99.99 -9.99
2019/06/15 18:00 EDT    1.81   1.88 -999 -999 -999 -99.9  75.7 1019.1 15.0  1.009 -99.9 -99.99 -9.99
2019/06/15 18:06 EDT    1.88   1.96 -999 -999 -999 -99.9  75.7 1019.0 15.1  1.009 -99.9 -99.99 -9.99
2019/06/15 18:12 EDT    1.95   2.04 -999 -999 -999 -99.9  75.7 1019.0 15.1  1.009 -99.9 -99.99 -9.99
2019/06/15 18:18 EDT    2.03   2.11 -999 -999 -999 -99.9  75.7 1019.1 15.1  1.009 -99.9 -99.99 -9.99
2019/06/15 18:24 EDT    2.10   2.17 -999 -999 -999 -99.9  75.7 1019.2 15.0  1.009 -99.9 -99.99 -9.99
2019/06/15 18:30 EDT    2.17   2.24 -999 -999 -999 -99.9  75.7 1019.2 15.3  1.010 -99.9 -99.99 -9.99
2019/06/15 18:36 EDT    2.23   2.28 -999 -999 -999 -99.9  75.7 1019.2 15.5  1.010 -99.9 -99.99 -9.99
2019/06/15 18:42 EDT    2.30   2.36 -999 -999 -999 -99.9  75.7 1019.2 15.4  1.010 -99.9 -99.99 -9.99
2019/06/15 18:48 EDT    2.36   2.41 -999 -999 -999 -99.9  75.7 1019.1 15.3  1.010 -99.9 -99.99 -9.99
2019/06/15 18:54 EDT    2.43   2.45 -999 -999 -999 -99.9  75.7 1019.1 15.1  1.010 -99.9 -99.99 -9.99
2019/06/15 19:00 EDT    2.49   2.52 -999 -999 -999 -99.9  75.6 1019.0 15.1  1.009 -99.9 -99.99 -9.99
2019/06/15 19:06 EDT    2.54   2.58 -999 -999 -999 -99.9  75.6 1019.0 15.0  1.009 -99.9 -99.99 -9.99
2019/06/15 19:12 EDT    2.60   2.64 -999 -999 -999 -99.9  75.6 1019.0 15.1  1.009 -99.9 -99.99 -9.99
2019/06/15 19:18 EDT    2.65   2.70 -999 -999 -999 -99.9  75.6 1019.0 15.1  1.010 -99.9 -99.99 -9.99
2019/06/15 19:24 EDT    2.70   2.71 -999 -999 -999 -99.9  75.6 1018.9 15.0  1.009 -99.9 -99.99 -9.99
2019/06/15 19:30 EDT    2.74   2.79 -999 -999 -999 -99.9  75.6 1018.9 15.1  1.009 -99.9 -99.99 -9.99
2019/06/15 19:36 EDT    2.79   2.81 -999 -999 -999 -99.9  75.7 1018.9 15.3  1.010 -99.9 -99.99 -9.99
2019/06/15 19:42 EDT    2.83   2.86 -999 -999 -999 -99.9  75.6 1018.8 15.2  1.010 -99.9 -99.99 -9.99
2019/06/15 19:48 EDT    2.87   2.89 -999 -999 -999 -99.9  75.7 1018.9 15.3  1.010 -99.9 -99.99 -9.99
2019/06/15 19:54 EDT    2.90   2.93 -999 -999 -999 -99.9  75.6 1018.8 15.3  1.010 -99.9 -99.99 -9.99
2019/06/15 20:00 EDT    2.93   2.94 -999 -999 -999 -99.9  75.7 1018.8 15.3  1.010 -99.9 -99.99 -9.99
2019/06/15 20:06 EDT    2.96   2.98 -999 -999 -999 -99.9  75.7 1018.7 15.4  1.010 -99.9 -99.99 -9.99
2019/06/15 20:12 EDT    2.98   2.98 -999 -999 -999 -99.9  75.7 1018.7 15.6  1.010 -99.9 -99.99 -9.99
2019/06/15 20:18 EDT    3.00   3.01 -999 -999 -999 -99.9  75.7 1018.7 15.7  1.010 -99.9 -99.99 -9.99
2019/06/15 20:24 EDT    3.02   3.02 -999 -999 -999 -99.9  75.6 1018.7 15.8  1.010 -99.9 -99.99 -9.99
2019/06/15 20:30 EDT    3.03   3.04 -999 -999 -999 -99.9  75.6 1018.6 15.8  1.010 -99.9 -99.99 -9.99
2019/06/15 20:36 EDT    3.04   3.04 -999 -999 -999 -99.9  75.6 1018.7 15.7  1.010 -99.9 -99.99 -9.99
2019/06/15 20:42 EDT    3.05   3.05 -999 -999 -999 -99.9  75.6 1018.8 15.7  1.010 -99.9 -99.99 -9.99
2019/06/15 20:48 EDT    3.05   3.04 -999 -999 -999 -99.9  75.6 1018.9 15.6  1.010 -99.9 -99.99 -9.99
2019/06/15 20:54 EDT    3.05   3.05 -999 -999 -999 -99.9  75.7 1019.0 15.5  1.010 -99.9 -99.99 -9.99
2019/06/15 21:00 EDT    3.04   3.04 -999 -999 -999 -99.9  75.7 1018.9 15.5  1.010 -99.9 -99.99 -9.99
2019/06/15 21:06 EDT    3.03   3.03 -999 -999 -999 -99.9  75.6 1018.8 15.6  1.010 -99.9 -99.99 -9.99
2019/06/15 21:12 EDT    3.02   3.00 -999 -999 -999 -99.9  75.6 1018.8 15.7  1.010 -99.9 -99.99 -9.99
2019/06/15 21:18 EDT    3.00   3.01 -999 -999 -999 -99.9  75.6 1018.8 15.6  1.010 -99.9 -99.99 -9.99
2019/06/15 21:24 EDT    2.98   2.98 -999 -999 -999 -99.9  75.7 1018.8 15.4  1.010 -99.9 -99.99 -9.99
2019/06/15 21:30 EDT    2.96   2.96 -999 -999 -999 -99.9  75.6 1018.7 15.5  1.010 -99.9 -99.99 -9.99
2019/06/15 21:36 EDT    2.93   2.92 -999 -999 -999 -99.9  75.7 1018.8 15.3  1.010 -99.9 -99.99 -9.99
2019/06/15 21:42 EDT    2.90 -99.99 -999 -999 -999 -99.9 -99.9 -999.9 -9.9 -9.999 -99.9 -99.99 -9.99
2019/06/15 21:48 EDT    2.87 -99.99 -999 -999 -999 -99.9 -99.9 -999.9 -9.9 -9.999 -99.9 -99.99 -9.99

Revised: 08/08/2018
NOAA / National Ocean Service
Web site owner: Center for Operational Oceanographic Products and Services